<?xml version="1.0" encoding="UTF-8" standalone="no" ?>
<gpx xmlns="http://www.topografix.com/GPX/1/1" xmlns:xsi="http://www.w3.org/2001/XMLSchema-instance" xsi:schemaLocation="http://www.topografix.com/GPX/1/1 http://www.topografix.com/GPX/1/1/gpx.xsd" version="1.1" creator="VisuGPX - https://www.visugpx.com">
  <metadata>
    <name>Montpellier VTT 7 févr. 2020 à 13:36</name>
    <desc><![CDATA[
]]></desc>
  </metadata>
  <trk>
    <name><![CDATA[Montpellier VTT 7 févr. 2020 à 13:36]]></name>
    <extensions>
      <line xmlns="http://www.topografix.com/GPX/gpx_style/0/2">
        <color>0000FF</color>
        <width>4</width>
      </line>
    </extensions>
    <trkseg>
      <trkpt lat="43.60195" lon="3.83071">
        <ele>67.35716779058</ele>
        <time>2020-02-07T12:38:32Z</time>
      </trkpt>
      <trkpt lat="43.60182" lon="3.83049">
        <ele>67.004160327201</ele>
        <time>2020-02-07T12:38:36Z</time>
      </trkpt>
      <trkpt lat="43.60167" lon="3.8303">
        <ele>66.532543432361</ele>
        <time>2020-02-07T12:38:40Z</time>
      </trkpt>
      <trkpt lat="43.60154" lon="3.83007">
        <ele>66.114267489844</ele>
        <time>2020-02-07T12:38:45Z</time>
      </trkpt>
      <trkpt lat="43.60141" lon="3.8299">
        <ele>65.754468861199</ele>
        <time>2020-02-07T12:38:49Z</time>
      </trkpt>
      <trkpt lat="43.60125" lon="3.82972">
        <ele>65.436171414523</ele>
        <time>2020-02-07T12:38:54Z</time>
      </trkpt>
      <trkpt lat="43.60114" lon="3.8296">
        <ele>65.406550091362</ele>
        <time>2020-02-07T12:38:58Z</time>
      </trkpt>
      <trkpt lat="43.60099" lon="3.82944">
        <ele>65.360452917223</ele>
        <time>2020-02-07T12:39:03Z</time>
      </trkpt>
      <trkpt lat="43.60088" lon="3.82933">
        <ele>65.310681272054</ele>
        <time>2020-02-07T12:39:07Z</time>
      </trkpt>
      <trkpt lat="43.60078" lon="3.8292">
        <ele>65.281269424342</ele>
        <time>2020-02-07T12:39:11Z</time>
      </trkpt>
      <trkpt lat="43.6007" lon="3.82911">
        <ele>65.268440256102</ele>
        <time>2020-02-07T12:39:15Z</time>
      </trkpt>
      <trkpt lat="43.60057" lon="3.829">
        <ele>65.281621723821</ele>
        <time>2020-02-07T12:39:20Z</time>
      </trkpt>
      <trkpt lat="43.60045" lon="3.82893">
        <ele>65.292520994736</ele>
        <time>2020-02-07T12:39:24Z</time>
      </trkpt>
      <trkpt lat="43.60026" lon="3.82879">
        <ele>65.387608270042</ele>
        <time>2020-02-07T12:39:29Z</time>
      </trkpt>
      <trkpt lat="43.60012" lon="3.82867">
        <ele>65.427877021867</ele>
        <time>2020-02-07T12:39:33Z</time>
      </trkpt>
      <trkpt lat="43.59995" lon="3.82855">
        <ele>65.474462155457</ele>
        <time>2020-02-07T12:39:37Z</time>
      </trkpt>
      <trkpt lat="43.59979" lon="3.82843">
        <ele>65.545495326108</ele>
        <time>2020-02-07T12:39:41Z</time>
      </trkpt>
      <trkpt lat="43.5996" lon="3.8283">
        <ele>65.69167597341</ele>
        <time>2020-02-07T12:39:46Z</time>
      </trkpt>
      <trkpt lat="43.5994" lon="3.82817">
        <ele>65.853542747907</ele>
        <time>2020-02-07T12:39:51Z</time>
      </trkpt>
      <trkpt lat="43.59925" lon="3.82806">
        <ele>65.936742445786</ele>
        <time>2020-02-07T12:39:55Z</time>
      </trkpt>
      <trkpt lat="43.5991" lon="3.82792">
        <ele>65.988751767437</ele>
        <time>2020-02-07T12:39:59Z</time>
      </trkpt>
      <trkpt lat="43.59894" lon="3.82779">
        <ele>66.019893874659</ele>
        <time>2020-02-07T12:40:03Z</time>
      </trkpt>
      <trkpt lat="43.59878" lon="3.82765">
        <ele>65.993822081959</ele>
        <time>2020-02-07T12:40:07Z</time>
      </trkpt>
      <trkpt lat="43.59856" lon="3.82738">
        <ele>65.848000646586</ele>
        <time>2020-02-07T12:40:12Z</time>
      </trkpt>
      <trkpt lat="43.59846" lon="3.82708">
        <ele>65.736899905372</ele>
        <time>2020-02-07T12:40:16Z</time>
      </trkpt>
      <trkpt lat="43.59834" lon="3.82683">
        <ele>65.716531223009</ele>
        <time>2020-02-07T12:40:20Z</time>
      </trkpt>
      <trkpt lat="43.59813" lon="3.82648">
        <ele>65.741285010205</ele>
        <time>2020-02-07T12:40:25Z</time>
      </trkpt>
      <trkpt lat="43.59796" lon="3.82629">
        <ele>65.665956667554</ele>
        <time>2020-02-07T12:40:29Z</time>
      </trkpt>
      <trkpt lat="43.59775" lon="3.82603">
        <ele>65.579298352286</ele>
        <time>2020-02-07T12:40:34Z</time>
      </trkpt>
      <trkpt lat="43.59758" lon="3.82582">
        <ele>65.563429549835</ele>
        <time>2020-02-07T12:40:38Z</time>
      </trkpt>
      <trkpt lat="43.59744" lon="3.82563">
        <ele>65.4974891033</ele>
        <time>2020-02-07T12:40:42Z</time>
      </trkpt>
      <trkpt lat="43.59731" lon="3.82546">
        <ele>65.469865501823</ele>
        <time>2020-02-07T12:40:46Z</time>
      </trkpt>
      <trkpt lat="43.59719" lon="3.82531">
        <ele>65.443105645907</ele>
        <time>2020-02-07T12:40:50Z</time>
      </trkpt>
      <trkpt lat="43.59707" lon="3.82513">
        <ele>65.434669015472</ele>
        <time>2020-02-07T12:40:55Z</time>
      </trkpt>
      <trkpt lat="43.59698" lon="3.825">
        <ele>65.439921969405</ele>
        <time>2020-02-07T12:40:59Z</time>
      </trkpt>
      <trkpt lat="43.59686" lon="3.82485">
        <ele>65.458919141432</ele>
        <time>2020-02-07T12:41:04Z</time>
      </trkpt>
      <trkpt lat="43.59675" lon="3.82473">
        <ele>65.521776729376</ele>
        <time>2020-02-07T12:41:08Z</time>
      </trkpt>
      <trkpt lat="43.59662" lon="3.82455">
        <ele>65.570752313442</ele>
        <time>2020-02-07T12:41:13Z</time>
      </trkpt>
      <trkpt lat="43.59649" lon="3.82437">
        <ele>65.647097302589</ele>
        <time>2020-02-07T12:41:17Z</time>
      </trkpt>
      <trkpt lat="43.59625" lon="3.82403">
        <ele>65.637881821097</ele>
        <time>2020-02-07T12:41:22Z</time>
      </trkpt>
      <trkpt lat="43.59605" lon="3.82374">
        <ele>65.524230606308</ele>
        <time>2020-02-07T12:41:26Z</time>
      </trkpt>
      <trkpt lat="43.59575" lon="3.8233">
        <ele>65.44418312043</ele>
        <time>2020-02-07T12:41:31Z</time>
      </trkpt>
      <trkpt lat="43.59548" lon="3.82293">
        <ele>65.488304767499</ele>
        <time>2020-02-07T12:41:35Z</time>
      </trkpt>
      <trkpt lat="43.59521" lon="3.82256">
        <ele>65.425742774449</ele>
        <time>2020-02-07T12:41:39Z</time>
      </trkpt>
      <trkpt lat="43.59487" lon="3.82207">
        <ele>65.153040360932</ele>
        <time>2020-02-07T12:41:44Z</time>
      </trkpt>
      <trkpt lat="43.59473" lon="3.8217">
        <ele>64.980399845969</ele>
        <time>2020-02-07T12:41:48Z</time>
      </trkpt>
      <trkpt lat="43.59472" lon="3.82142">
        <ele>64.824474118413</ele>
        <time>2020-02-07T12:41:53Z</time>
      </trkpt>
      <trkpt lat="43.59459" lon="3.82127">
        <ele>63.509618186624</ele>
        <time>2020-02-07T12:41:57Z</time>
      </trkpt>
      <trkpt lat="43.59434" lon="3.82105">
        <ele>61.53654194781</ele>
        <time>2020-02-07T12:42:01Z</time>
      </trkpt>
      <trkpt lat="43.59409" lon="3.82074">
        <ele>59.221945150592</ele>
        <time>2020-02-07T12:42:06Z</time>
      </trkpt>
      <trkpt lat="43.594" lon="3.82063">
        <ele>58.675985393271</ele>
        <time>2020-02-07T12:42:10Z</time>
      </trkpt>
      <trkpt lat="43.59392" lon="3.82067">
        <ele>58.415900484934</ele>
        <time>2020-02-07T12:42:14Z</time>
      </trkpt>
      <trkpt lat="43.59382" lon="3.8208">
        <ele>58.03333766732</ele>
        <time>2020-02-07T12:42:18Z</time>
      </trkpt>
      <trkpt lat="43.59368" lon="3.82092">
        <ele>56.185760785531</ele>
        <time>2020-02-07T12:42:22Z</time>
      </trkpt>
      <trkpt lat="43.59352" lon="3.82106">
        <ele>51.941766884691</ele>
        <time>2020-02-07T12:42:26Z</time>
      </trkpt>
      <trkpt lat="43.59337" lon="3.82124">
        <ele>49.334080384067</ele>
        <time>2020-02-07T12:42:30Z</time>
      </trkpt>
      <trkpt lat="43.59323" lon="3.82136">
        <ele>48.108687629118</ele>
        <time>2020-02-07T12:42:34Z</time>
      </trkpt>
      <trkpt lat="43.59324" lon="3.82122">
        <ele>47.101992775524</ele>
        <time>2020-02-07T12:42:38Z</time>
      </trkpt>
      <trkpt lat="43.59337" lon="3.82097">
        <ele>45.091341411205</ele>
        <time>2020-02-07T12:42:43Z</time>
      </trkpt>
      <trkpt lat="43.59354" lon="3.82083">
        <ele>44.356466362136</ele>
        <time>2020-02-07T12:42:47Z</time>
      </trkpt>
      <trkpt lat="43.59362" lon="3.82056">
        <ele>43.897186324659</ele>
        <time>2020-02-07T12:42:52Z</time>
      </trkpt>
      <trkpt lat="43.59346" lon="3.82045">
        <ele>43.463641020742</ele>
        <time>2020-02-07T12:42:56Z</time>
      </trkpt>
      <trkpt lat="43.59331" lon="3.82037">
        <ele>43.130559963811</ele>
        <time>2020-02-07T12:43:00Z</time>
      </trkpt>
      <trkpt lat="43.59317" lon="3.82021">
        <ele>42.870522122253</ele>
        <time>2020-02-07T12:43:04Z</time>
      </trkpt>
      <trkpt lat="43.59298" lon="3.82004">
        <ele>42.624135754505</ele>
        <time>2020-02-07T12:43:09Z</time>
      </trkpt>
      <trkpt lat="43.59296" lon="3.81987">
        <ele>42.591135578123</ele>
        <time>2020-02-07T12:43:13Z</time>
      </trkpt>
      <trkpt lat="43.59294" lon="3.81967">
        <ele>42.371435973987</ele>
        <time>2020-02-07T12:43:17Z</time>
      </trkpt>
      <trkpt lat="43.59286" lon="3.81918">
        <ele>41.596786082122</ele>
        <time>2020-02-07T12:43:22Z</time>
      </trkpt>
      <trkpt lat="43.5928" lon="3.81884">
        <ele>41.143323692701</ele>
        <time>2020-02-07T12:43:26Z</time>
      </trkpt>
      <trkpt lat="43.59273" lon="3.81853">
        <ele>40.797337118929</ele>
        <time>2020-02-07T12:43:30Z</time>
      </trkpt>
      <trkpt lat="43.59267" lon="3.81817">
        <ele>40.415729622029</ele>
        <time>2020-02-07T12:43:35Z</time>
      </trkpt>
      <trkpt lat="43.59263" lon="3.81794">
        <ele>40.202058544885</ele>
        <time>2020-02-07T12:43:39Z</time>
      </trkpt>
      <trkpt lat="43.59251" lon="3.81785">
        <ele>40.012029960311</ele>
        <time>2020-02-07T12:43:43Z</time>
      </trkpt>
      <trkpt lat="43.59234" lon="3.81782">
        <ele>39.802936577246</ele>
        <time>2020-02-07T12:43:47Z</time>
      </trkpt>
      <trkpt lat="43.59219" lon="3.81774">
        <ele>39.730791679836</ele>
        <time>2020-02-07T12:43:51Z</time>
      </trkpt>
      <trkpt lat="43.59211" lon="3.81749">
        <ele>39.578841691997</ele>
        <time>2020-02-07T12:43:56Z</time>
      </trkpt>
      <trkpt lat="43.59203" lon="3.81722">
        <ele>39.354038373047</ele>
        <time>2020-02-07T12:44:01Z</time>
      </trkpt>
      <trkpt lat="43.59195" lon="3.81698">
        <ele>39.188706113261</ele>
        <time>2020-02-07T12:44:05Z</time>
      </trkpt>
      <trkpt lat="43.59186" lon="3.81669">
        <ele>39.037730983041</ele>
        <time>2020-02-07T12:44:10Z</time>
      </trkpt>
      <trkpt lat="43.59178" lon="3.81642">
        <ele>38.980299079628</ele>
        <time>2020-02-07T12:44:15Z</time>
      </trkpt>
      <trkpt lat="43.59174" lon="3.81626">
        <ele>38.972685544005</ele>
        <time>2020-02-07T12:44:19Z</time>
      </trkpt>
      <trkpt lat="43.59171" lon="3.81617">
        <ele>38.692549170746</ele>
        <time>2020-02-07T12:45:19Z</time>
      </trkpt>
      <trkpt lat="43.59167" lon="3.81604">
        <ele>38.566106704822</ele>
        <time>2020-02-07T12:45:23Z</time>
      </trkpt>
      <trkpt lat="43.59162" lon="3.81586">
        <ele>38.42519248144</ele>
        <time>2020-02-07T12:45:28Z</time>
      </trkpt>
      <trkpt lat="43.59159" lon="3.81568">
        <ele>38.327127956798</ele>
        <time>2020-02-07T12:45:32Z</time>
      </trkpt>
      <trkpt lat="43.59154" lon="3.81543">
        <ele>37.736476951354</ele>
        <time>2020-02-07T12:45:37Z</time>
      </trkpt>
      <trkpt lat="43.59148" lon="3.81521">
        <ele>37.453083433136</ele>
        <time>2020-02-07T12:45:41Z</time>
      </trkpt>
      <trkpt lat="43.59142" lon="3.815">
        <ele>37.332186361706</ele>
        <time>2020-02-07T12:45:45Z</time>
      </trkpt>
      <trkpt lat="43.59136" lon="3.81476">
        <ele>37.220231085019</ele>
        <time>2020-02-07T12:45:49Z</time>
      </trkpt>
      <trkpt lat="43.59133" lon="3.81458">
        <ele>37.208561343285</ele>
        <time>2020-02-07T12:45:54Z</time>
      </trkpt>
      <trkpt lat="43.59137" lon="3.81468">
        <ele>37.193804125646</ele>
        <time>2020-02-07T12:45:58Z</time>
      </trkpt>
      <trkpt lat="43.59149" lon="3.81493">
        <ele>37.107442878437</ele>
        <time>2020-02-07T12:46:02Z</time>
      </trkpt>
      <trkpt lat="43.59161" lon="3.81527">
        <ele>36.905926129118</ele>
        <time>2020-02-07T12:46:07Z</time>
      </trkpt>
      <trkpt lat="43.59171" lon="3.81555">
        <ele>36.782527061491</ele>
        <time>2020-02-07T12:46:11Z</time>
      </trkpt>
      <trkpt lat="43.5918" lon="3.81584">
        <ele>36.689722025167</ele>
        <time>2020-02-07T12:46:16Z</time>
      </trkpt>
      <trkpt lat="43.59174" lon="3.81596">
        <ele>36.683862593852</ele>
        <time>2020-02-07T12:46:20Z</time>
      </trkpt>
      <trkpt lat="43.59158" lon="3.81607">
        <ele>36.634125481739</ele>
        <time>2020-02-07T12:46:25Z</time>
      </trkpt>
      <trkpt lat="43.59141" lon="3.816">
        <ele>36.61263034666</ele>
        <time>2020-02-07T12:46:29Z</time>
      </trkpt>
      <trkpt lat="43.59114" lon="3.81596">
        <ele>36.583307839289</ele>
        <time>2020-02-07T12:46:34Z</time>
      </trkpt>
      <trkpt lat="43.59098" lon="3.8158">
        <ele>36.521380062199</ele>
        <time>2020-02-07T12:46:38Z</time>
      </trkpt>
      <trkpt lat="43.59078" lon="3.81546">
        <ele>36.337288459572</ele>
        <time>2020-02-07T12:46:43Z</time>
      </trkpt>
      <trkpt lat="43.59066" lon="3.81528">
        <ele>36.277690840065</ele>
        <time>2020-02-07T12:46:47Z</time>
      </trkpt>
      <trkpt lat="43.59051" lon="3.81513">
        <ele>36.240210672538</ele>
        <time>2020-02-07T12:46:51Z</time>
      </trkpt>
      <trkpt lat="43.59035" lon="3.81485">
        <ele>36.171952144593</ele>
        <time>2020-02-07T12:46:55Z</time>
      </trkpt>
      <trkpt lat="43.59015" lon="3.81462">
        <ele>36.165571957091</ele>
        <time>2020-02-07T12:47:00Z</time>
      </trkpt>
      <trkpt lat="43.59002" lon="3.81442">
        <ele>36.13792121494</ele>
        <time>2020-02-07T12:47:04Z</time>
      </trkpt>
      <trkpt lat="43.58983" lon="3.81424">
        <ele>36.125126579157</ele>
        <time>2020-02-07T12:47:08Z</time>
      </trkpt>
      <trkpt lat="43.58966" lon="3.81395">
        <ele>36.105449805891</ele>
        <time>2020-02-07T12:47:13Z</time>
      </trkpt>
      <trkpt lat="43.58951" lon="3.81366">
        <ele>36.01545745179</ele>
        <time>2020-02-07T12:47:17Z</time>
      </trkpt>
      <trkpt lat="43.58929" lon="3.8134">
        <ele>35.956570866373</ele>
        <time>2020-02-07T12:47:22Z</time>
      </trkpt>
      <trkpt lat="43.58912" lon="3.81318">
        <ele>35.957663983221</ele>
        <time>2020-02-07T12:47:26Z</time>
      </trkpt>
      <trkpt lat="43.589" lon="3.81303">
        <ele>35.960932230747</ele>
        <time>2020-02-07T12:47:30Z</time>
      </trkpt>
      <trkpt lat="43.58887" lon="3.81288">
        <ele>35.980384256648</ele>
        <time>2020-02-07T12:47:34Z</time>
      </trkpt>
      <trkpt lat="43.58869" lon="3.81261">
        <ele>36.0355561521</ele>
        <time>2020-02-07T12:47:39Z</time>
      </trkpt>
      <trkpt lat="43.58854" lon="3.81239">
        <ele>36.116045641297</ele>
        <time>2020-02-07T12:47:43Z</time>
      </trkpt>
      <trkpt lat="43.58838" lon="3.81213">
        <ele>36.15283613583</ele>
        <time>2020-02-07T12:47:48Z</time>
      </trkpt>
      <trkpt lat="43.58826" lon="3.8119">
        <ele>36.195075367765</ele>
        <time>2020-02-07T12:47:52Z</time>
      </trkpt>
      <trkpt lat="43.58812" lon="3.81172">
        <ele>36.253735664228</ele>
        <time>2020-02-07T12:47:56Z</time>
      </trkpt>
      <trkpt lat="43.58797" lon="3.81151">
        <ele>36.303896192718</ele>
        <time>2020-02-07T12:48:00Z</time>
      </trkpt>
      <trkpt lat="43.58779" lon="3.81127">
        <ele>36.37435360117</ele>
        <time>2020-02-07T12:48:05Z</time>
      </trkpt>
      <trkpt lat="43.58761" lon="3.81123">
        <ele>36.464707023478</ele>
        <time>2020-02-07T12:48:09Z</time>
      </trkpt>
      <trkpt lat="43.58739" lon="3.81128">
        <ele>36.557650732793</ele>
        <time>2020-02-07T12:48:14Z</time>
      </trkpt>
      <trkpt lat="43.58727" lon="3.81153">
        <ele>36.559917109446</ele>
        <time>2020-02-07T12:48:18Z</time>
      </trkpt>
      <trkpt lat="43.58716" lon="3.81179">
        <ele>36.539954735249</ele>
        <time>2020-02-07T12:48:22Z</time>
      </trkpt>
      <trkpt lat="43.58706" lon="3.81205">
        <ele>36.527958658031</ele>
        <time>2020-02-07T12:48:26Z</time>
      </trkpt>
      <trkpt lat="43.58693" lon="3.81237">
        <ele>36.499737210385</ele>
        <time>2020-02-07T12:48:31Z</time>
      </trkpt>
      <trkpt lat="43.58683" lon="3.81263">
        <ele>36.463399524802</ele>
        <time>2020-02-07T12:48:35Z</time>
      </trkpt>
      <trkpt lat="43.58674" lon="3.81293">
        <ele>36.419857901673</ele>
        <time>2020-02-07T12:48:40Z</time>
      </trkpt>
      <trkpt lat="43.58665" lon="3.81311">
        <ele>36.41582276881</ele>
        <time>2020-02-07T12:48:44Z</time>
      </trkpt>
      <trkpt lat="43.5865" lon="3.81297">
        <ele>36.399812863023</ele>
        <time>2020-02-07T12:48:48Z</time>
      </trkpt>
      <trkpt lat="43.58633" lon="3.8128">
        <ele>36.380253201838</ele>
        <time>2020-02-07T12:48:53Z</time>
      </trkpt>
      <trkpt lat="43.58623" lon="3.81281">
        <ele>36.373350847835</ele>
        <time>2020-02-07T12:48:57Z</time>
      </trkpt>
      <trkpt lat="43.58622" lon="3.81289">
        <ele>36.363499715494</ele>
        <time>2020-02-07T12:49:02Z</time>
      </trkpt>
      <trkpt lat="43.58621" lon="3.81314">
        <ele>36.354697075545</ele>
        <time>2020-02-07T12:49:07Z</time>
      </trkpt>
      <trkpt lat="43.58618" lon="3.81334">
        <ele>36.346245030036</ele>
        <time>2020-02-07T12:49:12Z</time>
      </trkpt>
      <trkpt lat="43.58614" lon="3.81354">
        <ele>36.338771113416</ele>
        <time>2020-02-07T12:49:16Z</time>
      </trkpt>
      <trkpt lat="43.5861" lon="3.81373">
        <ele>36.331624052072</ele>
        <time>2020-02-07T12:49:20Z</time>
      </trkpt>
      <trkpt lat="43.58606" lon="3.81397">
        <ele>36.309838033877</ele>
        <time>2020-02-07T12:49:25Z</time>
      </trkpt>
      <trkpt lat="43.58604" lon="3.81416">
        <ele>36.285760584132</ele>
        <time>2020-02-07T12:49:29Z</time>
      </trkpt>
      <trkpt lat="43.58599" lon="3.81438">
        <ele>36.265188342167</ele>
        <time>2020-02-07T12:49:33Z</time>
      </trkpt>
      <trkpt lat="43.58588" lon="3.81457">
        <ele>36.173925293887</ele>
        <time>2020-02-07T12:49:37Z</time>
      </trkpt>
      <trkpt lat="43.58574" lon="3.81466">
        <ele>36.151726800551</ele>
        <time>2020-02-07T12:49:41Z</time>
      </trkpt>
      <trkpt lat="43.58556" lon="3.81479">
        <ele>36.12261523424</ele>
        <time>2020-02-07T12:49:46Z</time>
      </trkpt>
      <trkpt lat="43.58543" lon="3.81471">
        <ele>36.093172173768</ele>
        <time>2020-02-07T12:49:50Z</time>
      </trkpt>
      <trkpt lat="43.58525" lon="3.81485">
        <ele>36.052635564081</ele>
        <time>2020-02-07T12:49:55Z</time>
      </trkpt>
      <trkpt lat="43.58504" lon="3.81486">
        <ele>36.017707393114</ele>
        <time>2020-02-07T12:50:00Z</time>
      </trkpt>
      <trkpt lat="43.58484" lon="3.81487">
        <ele>35.989790775783</ele>
        <time>2020-02-07T12:50:04Z</time>
      </trkpt>
      <trkpt lat="43.58461" lon="3.81479">
        <ele>35.957148898712</ele>
        <time>2020-02-07T12:50:09Z</time>
      </trkpt>
      <trkpt lat="43.58448" lon="3.81471">
        <ele>35.935207747668</ele>
        <time>2020-02-07T12:50:13Z</time>
      </trkpt>
      <trkpt lat="43.58438" lon="3.8146">
        <ele>35.91996114373</ele>
        <time>2020-02-07T12:50:17Z</time>
      </trkpt>
      <trkpt lat="43.58434" lon="3.81467">
        <ele>35.869296564349</ele>
        <time>2020-02-07T12:50:35Z</time>
      </trkpt>
      <trkpt lat="43.58433" lon="3.81478">
        <ele>35.800385931856</ele>
        <time>2020-02-07T12:50:44Z</time>
      </trkpt>
      <trkpt lat="43.58431" lon="3.81489">
        <ele>35.739964252208</ele>
        <time>2020-02-07T12:50:50Z</time>
      </trkpt>
      <trkpt lat="43.58428" lon="3.815">
        <ele>35.698522559666</ele>
        <time>2020-02-07T12:50:54Z</time>
      </trkpt>
      <trkpt lat="43.58425" lon="3.81521">
        <ele>35.644681570842</ele>
        <time>2020-02-07T12:50:59Z</time>
      </trkpt>
      <trkpt lat="43.58419" lon="3.81541">
        <ele>35.604823230977</ele>
        <time>2020-02-07T12:51:03Z</time>
      </trkpt>
      <trkpt lat="43.58414" lon="3.81556">
        <ele>35.554982204228</ele>
        <time>2020-02-07T12:51:08Z</time>
      </trkpt>
      <trkpt lat="43.5841" lon="3.81564">
        <ele>35.515012074695</ele>
        <time>2020-02-07T12:51:12Z</time>
      </trkpt>
      <trkpt lat="43.58388" lon="3.81572">
        <ele>35.474455130594</ele>
        <time>2020-02-07T12:51:16Z</time>
      </trkpt>
      <trkpt lat="43.5838" lon="3.81581">
        <ele>35.429341354163</ele>
        <time>2020-02-07T12:51:21Z</time>
      </trkpt>
      <trkpt lat="43.5837" lon="3.8159">
        <ele>35.393317473961</ele>
        <time>2020-02-07T12:51:25Z</time>
      </trkpt>
      <trkpt lat="43.58351" lon="3.81605">
        <ele>35.350318631645</ele>
        <time>2020-02-07T12:51:30Z</time>
      </trkpt>
      <trkpt lat="43.58332" lon="3.81612">
        <ele>35.316575531108</ele>
        <time>2020-02-07T12:51:34Z</time>
      </trkpt>
      <trkpt lat="43.58314" lon="3.81611">
        <ele>35.281949936288</ele>
        <time>2020-02-07T12:51:38Z</time>
      </trkpt>
      <trkpt lat="43.58297" lon="3.81597">
        <ele>35.23638133818</ele>
        <time>2020-02-07T12:51:43Z</time>
      </trkpt>
      <trkpt lat="43.58285" lon="3.81581">
        <ele>35.195676077399</ele>
        <time>2020-02-07T12:51:47Z</time>
      </trkpt>
      <trkpt lat="43.58269" lon="3.81575">
        <ele>35.155220182757</ele>
        <time>2020-02-07T12:51:51Z</time>
      </trkpt>
      <trkpt lat="43.58249" lon="3.8157">
        <ele>35.104550053715</ele>
        <time>2020-02-07T12:51:56Z</time>
      </trkpt>
      <trkpt lat="43.5823" lon="3.8156">
        <ele>35.069013316688</ele>
        <time>2020-02-07T12:52:00Z</time>
      </trkpt>
      <trkpt lat="43.58215" lon="3.81554">
        <ele>35.033153332312</ele>
        <time>2020-02-07T12:52:04Z</time>
      </trkpt>
      <trkpt lat="43.58194" lon="3.81553">
        <ele>34.990360498109</ele>
        <time>2020-02-07T12:52:09Z</time>
      </trkpt>
      <trkpt lat="43.58178" lon="3.81545">
        <ele>34.960001685636</ele>
        <time>2020-02-07T12:52:13Z</time>
      </trkpt>
      <trkpt lat="43.58164" lon="3.81535">
        <ele>34.93234304713</ele>
        <time>2020-02-07T12:52:17Z</time>
      </trkpt>
      <trkpt lat="43.58147" lon="3.81513">
        <ele>34.899928670281</ele>
        <time>2020-02-07T12:52:22Z</time>
      </trkpt>
      <trkpt lat="43.58132" lon="3.81497">
        <ele>34.842667861842</ele>
        <time>2020-02-07T12:52:26Z</time>
      </trkpt>
      <trkpt lat="43.58113" lon="3.81495">
        <ele>34.744389197936</ele>
        <time>2020-02-07T12:52:30Z</time>
      </trkpt>
      <trkpt lat="43.58089" lon="3.81491">
        <ele>34.719517734634</ele>
        <time>2020-02-07T12:52:35Z</time>
      </trkpt>
      <trkpt lat="43.58065" lon="3.81487">
        <ele>34.710391046988</ele>
        <time>2020-02-07T12:52:40Z</time>
      </trkpt>
      <trkpt lat="43.58046" lon="3.81484">
        <ele>34.706500992436</ele>
        <time>2020-02-07T12:52:44Z</time>
      </trkpt>
      <trkpt lat="43.58025" lon="3.81482">
        <ele>34.690729924309</ele>
        <time>2020-02-07T12:52:49Z</time>
      </trkpt>
      <trkpt lat="43.5801" lon="3.81472">
        <ele>34.654142683768</ele>
        <time>2020-02-07T12:52:53Z</time>
      </trkpt>
      <trkpt lat="43.57988" lon="3.81455">
        <ele>34.604645147825</ele>
        <time>2020-02-07T12:52:58Z</time>
      </trkpt>
      <trkpt lat="43.57964" lon="3.81449">
        <ele>34.559220173433</ele>
        <time>2020-02-07T12:53:03Z</time>
      </trkpt>
      <trkpt lat="43.57945" lon="3.81442">
        <ele>34.523386460128</ele>
        <time>2020-02-07T12:53:07Z</time>
      </trkpt>
      <trkpt lat="43.57918" lon="3.81442">
        <ele>34.497145695531</ele>
        <time>2020-02-07T12:53:12Z</time>
      </trkpt>
      <trkpt lat="43.57897" lon="3.8144">
        <ele>34.501709623212</ele>
        <time>2020-02-07T12:53:16Z</time>
      </trkpt>
      <trkpt lat="43.57873" lon="3.81436">
        <ele>34.50892295933</ele>
        <time>2020-02-07T12:53:21Z</time>
      </trkpt>
      <trkpt lat="43.57855" lon="3.81424">
        <ele>34.536527847287</ele>
        <time>2020-02-07T12:53:25Z</time>
      </trkpt>
      <trkpt lat="43.57837" lon="3.81401">
        <ele>34.521187393374</ele>
        <time>2020-02-07T12:53:30Z</time>
      </trkpt>
      <trkpt lat="43.57824" lon="3.81381">
        <ele>34.48020324252</ele>
        <time>2020-02-07T12:53:34Z</time>
      </trkpt>
      <trkpt lat="43.57804" lon="3.8137">
        <ele>34.468139924553</ele>
        <time>2020-02-07T12:53:39Z</time>
      </trkpt>
      <trkpt lat="43.57787" lon="3.81369">
        <ele>34.468325198864</ele>
        <time>2020-02-07T12:53:43Z</time>
      </trkpt>
      <trkpt lat="43.57771" lon="3.8137">
        <ele>34.46387980437</ele>
        <time>2020-02-07T12:53:47Z</time>
      </trkpt>
      <trkpt lat="43.57747" lon="3.8137">
        <ele>34.424861453004</ele>
        <time>2020-02-07T12:53:52Z</time>
      </trkpt>
      <trkpt lat="43.57728" lon="3.81369">
        <ele>34.376352554325</ele>
        <time>2020-02-07T12:53:56Z</time>
      </trkpt>
      <trkpt lat="43.57709" lon="3.81369">
        <ele>34.341997964595</ele>
        <time>2020-02-07T12:54:00Z</time>
      </trkpt>
      <trkpt lat="43.5769" lon="3.8137">
        <ele>34.310436892759</ele>
        <time>2020-02-07T12:54:04Z</time>
      </trkpt>
      <trkpt lat="43.57665" lon="3.81361">
        <ele>34.228847195279</ele>
        <time>2020-02-07T12:54:09Z</time>
      </trkpt>
      <trkpt lat="43.57647" lon="3.8135">
        <ele>34.045784644182</ele>
        <time>2020-02-07T12:54:13Z</time>
      </trkpt>
      <trkpt lat="43.57635" lon="3.81338">
        <ele>33.975960988807</ele>
        <time>2020-02-07T12:54:17Z</time>
      </trkpt>
      <trkpt lat="43.57614" lon="3.81329">
        <ele>33.809637395295</ele>
        <time>2020-02-07T12:54:22Z</time>
      </trkpt>
      <trkpt lat="43.57597" lon="3.81319">
        <ele>33.717644733366</ele>
        <time>2020-02-07T12:54:26Z</time>
      </trkpt>
      <trkpt lat="43.57579" lon="3.81309">
        <ele>33.645250929273</ele>
        <time>2020-02-07T12:54:30Z</time>
      </trkpt>
      <trkpt lat="43.57562" lon="3.81295">
        <ele>33.60821682127</ele>
        <time>2020-02-07T12:54:34Z</time>
      </trkpt>
      <trkpt lat="43.57541" lon="3.8128">
        <ele>33.585692989011</ele>
        <time>2020-02-07T12:54:39Z</time>
      </trkpt>
      <trkpt lat="43.57525" lon="3.8127">
        <ele>33.549815527083</ele>
        <time>2020-02-07T12:54:43Z</time>
      </trkpt>
      <trkpt lat="43.57507" lon="3.81263">
        <ele>33.503863252253</ele>
        <time>2020-02-07T12:54:47Z</time>
      </trkpt>
      <trkpt lat="43.57492" lon="3.81256">
        <ele>33.498457854046</ele>
        <time>2020-02-07T12:54:51Z</time>
      </trkpt>
      <trkpt lat="43.57472" lon="3.81256">
        <ele>33.429884353162</ele>
        <time>2020-02-07T12:54:56Z</time>
      </trkpt>
      <trkpt lat="43.57453" lon="3.8124">
        <ele>33.419234253857</ele>
        <time>2020-02-07T12:55:00Z</time>
      </trkpt>
      <trkpt lat="43.57437" lon="3.81223">
        <ele>33.389753240064</ele>
        <time>2020-02-07T12:55:04Z</time>
      </trkpt>
      <trkpt lat="43.57421" lon="3.8122">
        <ele>33.388499841266</ele>
        <time>2020-02-07T12:55:08Z</time>
      </trkpt>
      <trkpt lat="43.57406" lon="3.81207">
        <ele>33.376248926857</ele>
        <time>2020-02-07T12:55:13Z</time>
      </trkpt>
      <trkpt lat="43.574" lon="3.81195">
        <ele>33.369556824524</ele>
        <time>2020-02-07T12:55:18Z</time>
      </trkpt>
      <trkpt lat="43.57397" lon="3.81186">
        <ele>33.351777274055</ele>
        <time>2020-02-07T12:55:22Z</time>
      </trkpt>
      <trkpt lat="43.5739" lon="3.81179">
        <ele>33.318552425946</ele>
        <time>2020-02-07T12:55:27Z</time>
      </trkpt>
      <trkpt lat="43.57382" lon="3.81177">
        <ele>33.287769493418</ele>
        <time>2020-02-07T12:55:31Z</time>
      </trkpt>
      <trkpt lat="43.57367" lon="3.8118">
        <ele>33.240073756146</ele>
        <time>2020-02-07T12:55:36Z</time>
      </trkpt>
      <trkpt lat="43.57359" lon="3.81175">
        <ele>33.165532212752</ele>
        <time>2020-02-07T12:55:42Z</time>
      </trkpt>
      <trkpt lat="43.57351" lon="3.81172">
        <ele>33.045404330994</ele>
        <time>2020-02-07T12:55:47Z</time>
      </trkpt>
      <trkpt lat="43.57344" lon="3.8116">
        <ele>32.910483841941</ele>
        <time>2020-02-07T12:55:52Z</time>
      </trkpt>
      <trkpt lat="43.57336" lon="3.81151">
        <ele>32.841944648472</ele>
        <time>2020-02-07T12:55:56Z</time>
      </trkpt>
      <trkpt lat="43.57326" lon="3.81131">
        <ele>32.672082387332</ele>
        <time>2020-02-07T12:56:01Z</time>
      </trkpt>
      <trkpt lat="43.57321" lon="3.8112">
        <ele>32.631420977997</ele>
        <time>2020-02-07T12:56:05Z</time>
      </trkpt>
      <trkpt lat="43.5731" lon="3.81108">
        <ele>32.485753971237</ele>
        <time>2020-02-07T12:56:10Z</time>
      </trkpt>
      <trkpt lat="43.57304" lon="3.81114">
        <ele>32.289165784622</ele>
        <time>2020-02-07T12:56:17Z</time>
      </trkpt>
      <trkpt lat="43.57294" lon="3.81124">
        <ele>32.157284520874</ele>
        <time>2020-02-07T12:56:22Z</time>
      </trkpt>
      <trkpt lat="43.57286" lon="3.81135">
        <ele>32.055830799784</ele>
        <time>2020-02-07T12:56:26Z</time>
      </trkpt>
      <trkpt lat="43.57276" lon="3.81141">
        <ele>31.962188887907</ele>
        <time>2020-02-07T12:56:30Z</time>
      </trkpt>
      <trkpt lat="43.57262" lon="3.81147">
        <ele>31.853456331392</ele>
        <time>2020-02-07T12:56:35Z</time>
      </trkpt>
      <trkpt lat="43.57246" lon="3.81153">
        <ele>31.75491327629</ele>
        <time>2020-02-07T12:56:40Z</time>
      </trkpt>
      <trkpt lat="43.57232" lon="3.81161">
        <ele>31.6853495243</ele>
        <time>2020-02-07T12:56:44Z</time>
      </trkpt>
      <trkpt lat="43.57214" lon="3.81174">
        <ele>31.603283689004</ele>
        <time>2020-02-07T12:56:49Z</time>
      </trkpt>
      <trkpt lat="43.57193" lon="3.81186">
        <ele>31.543236406749</ele>
        <time>2020-02-07T12:56:53Z</time>
      </trkpt>
      <trkpt lat="43.57176" lon="3.81198">
        <ele>31.362773569797</ele>
        <time>2020-02-07T12:56:57Z</time>
      </trkpt>
      <trkpt lat="43.57155" lon="3.81214">
        <ele>31.147804989003</ele>
        <time>2020-02-07T12:57:02Z</time>
      </trkpt>
      <trkpt lat="43.57141" lon="3.81228">
        <ele>31.073041802529</ele>
        <time>2020-02-07T12:57:06Z</time>
      </trkpt>
      <trkpt lat="43.5713" lon="3.81243">
        <ele>31.058496016417</ele>
        <time>2020-02-07T12:57:10Z</time>
      </trkpt>
      <trkpt lat="43.57121" lon="3.81263">
        <ele>31.039338449238</ele>
        <time>2020-02-07T12:57:15Z</time>
      </trkpt>
      <trkpt lat="43.57117" lon="3.81265">
        <ele>31.032559779184</ele>
        <time>2020-02-07T12:57:17Z</time>
      </trkpt>
      <trkpt lat="43.57106" lon="3.81269">
        <ele>30.916565870519</ele>
        <time>2020-02-07T12:57:23Z</time>
      </trkpt>
      <trkpt lat="43.57093" lon="3.81303">
        <ele>30.907121775057</ele>
        <time>2020-02-07T12:57:28Z</time>
      </trkpt>
      <trkpt lat="43.57085" lon="3.8132">
        <ele>30.878786543464</ele>
        <time>2020-02-07T12:57:33Z</time>
      </trkpt>
      <trkpt lat="43.57082" lon="3.81331">
        <ele>30.857837289186</ele>
        <time>2020-02-07T12:57:37Z</time>
      </trkpt>
      <trkpt lat="43.57071" lon="3.81341">
        <ele>30.830832765104</ele>
        <time>2020-02-07T12:57:42Z</time>
      </trkpt>
      <trkpt lat="43.57066" lon="3.81333">
        <ele>30.801626127553</ele>
        <time>2020-02-07T12:57:46Z</time>
      </trkpt>
      <trkpt lat="43.57061" lon="3.81324">
        <ele>30.769129391834</ele>
        <time>2020-02-07T12:57:50Z</time>
      </trkpt>
      <trkpt lat="43.57053" lon="3.8132">
        <ele>30.728034444431</ele>
        <time>2020-02-07T12:57:55Z</time>
      </trkpt>
      <trkpt lat="43.57048" lon="3.81311">
        <ele>30.67441867072</ele>
        <time>2020-02-07T12:58:00Z</time>
      </trkpt>
      <trkpt lat="43.57042" lon="3.81303">
        <ele>30.628485470746</ele>
        <time>2020-02-07T12:58:05Z</time>
      </trkpt>
      <trkpt lat="43.57032" lon="3.81302">
        <ele>30.598632247849</ele>
        <time>2020-02-07T12:58:09Z</time>
      </trkpt>
      <trkpt lat="43.57022" lon="3.81297">
        <ele>30.565160026103</ele>
        <time>2020-02-07T12:58:14Z</time>
      </trkpt>
      <trkpt lat="43.57014" lon="3.81289">
        <ele>30.538356668945</ele>
        <time>2020-02-07T12:58:18Z</time>
      </trkpt>
      <trkpt lat="43.57004" lon="3.81279">
        <ele>30.507876629811</ele>
        <time>2020-02-07T12:58:23Z</time>
      </trkpt>
      <trkpt lat="43.56995" lon="3.81272">
        <ele>30.483297906171</ele>
        <time>2020-02-07T12:58:27Z</time>
      </trkpt>
      <trkpt lat="43.56985" lon="3.81266">
        <ele>30.462618155299</ele>
        <time>2020-02-07T12:58:32Z</time>
      </trkpt>
      <trkpt lat="43.56979" lon="3.81259">
        <ele>30.449601310512</ele>
        <time>2020-02-07T12:58:36Z</time>
      </trkpt>
      <trkpt lat="43.56971" lon="3.81251">
        <ele>30.441900568625</ele>
        <time>2020-02-07T12:58:41Z</time>
      </trkpt>
      <trkpt lat="43.56963" lon="3.81243">
        <ele>30.449869506872</ele>
        <time>2020-02-07T12:58:46Z</time>
      </trkpt>
      <trkpt lat="43.56958" lon="3.81236">
        <ele>30.475103797872</ele>
        <time>2020-02-07T12:58:51Z</time>
      </trkpt>
      <trkpt lat="43.56955" lon="3.81223">
        <ele>30.507995674052</ele>
        <time>2020-02-07T12:58:56Z</time>
      </trkpt>
      <trkpt lat="43.56948" lon="3.8121">
        <ele>30.531184046252</ele>
        <time>2020-02-07T12:59:00Z</time>
      </trkpt>
      <trkpt lat="43.56943" lon="3.812">
        <ele>30.551847842861</ele>
        <time>2020-02-07T12:59:04Z</time>
      </trkpt>
      <trkpt lat="43.5693" lon="3.81193">
        <ele>30.66068406113</ele>
        <time>2020-02-07T12:59:09Z</time>
      </trkpt>
      <trkpt lat="43.56914" lon="3.81182">
        <ele>30.702606430333</ele>
        <time>2020-02-07T12:59:13Z</time>
      </trkpt>
      <trkpt lat="43.56901" lon="3.81175">
        <ele>30.762525889999</ele>
        <time>2020-02-07T12:59:17Z</time>
      </trkpt>
      <trkpt lat="43.56883" lon="3.8116">
        <ele>30.815320030811</ele>
        <time>2020-02-07T12:59:22Z</time>
      </trkpt>
      <trkpt lat="43.56878" lon="3.8115">
        <ele>30.824287261342</ele>
        <time>2020-02-07T12:59:26Z</time>
      </trkpt>
      <trkpt lat="43.56872" lon="3.81143">
        <ele>30.840334125674</ele>
        <time>2020-02-07T12:59:31Z</time>
      </trkpt>
      <trkpt lat="43.56864" lon="3.8114">
        <ele>30.86235484546</ele>
        <time>2020-02-07T12:59:37Z</time>
      </trkpt>
      <trkpt lat="43.56856" lon="3.81137">
        <ele>30.892121848775</ele>
        <time>2020-02-07T12:59:44Z</time>
      </trkpt>
      <trkpt lat="43.56848" lon="3.81133">
        <ele>30.938041735299</ele>
        <time>2020-02-07T12:59:51Z</time>
      </trkpt>
      <trkpt lat="43.56841" lon="3.81126">
        <ele>30.974844530701</ele>
        <time>2020-02-07T12:59:57Z</time>
      </trkpt>
      <trkpt lat="43.56835" lon="3.81119">
        <ele>31.009803160376</ele>
        <time>2020-02-07T13:00:03Z</time>
      </trkpt>
      <trkpt lat="43.56829" lon="3.81111">
        <ele>31.040788971513</ele>
        <time>2020-02-07T13:00:07Z</time>
      </trkpt>
      <trkpt lat="43.56819" lon="3.81102">
        <ele>31.088748229422</ele>
        <time>2020-02-07T13:00:12Z</time>
      </trkpt>
      <trkpt lat="43.56811" lon="3.81093">
        <ele>31.142129125831</ele>
        <time>2020-02-07T13:00:16Z</time>
      </trkpt>
      <trkpt lat="43.56798" lon="3.81082">
        <ele>31.228791027579</ele>
        <time>2020-02-07T13:00:21Z</time>
      </trkpt>
      <trkpt lat="43.56789" lon="3.81069">
        <ele>31.304664406194</ele>
        <time>2020-02-07T13:00:25Z</time>
      </trkpt>
      <trkpt lat="43.56778" lon="3.81055">
        <ele>31.398374358592</ele>
        <time>2020-02-07T13:00:30Z</time>
      </trkpt>
      <trkpt lat="43.56772" lon="3.81032">
        <ele>31.857805366972</ele>
        <time>2020-02-07T13:00:34Z</time>
      </trkpt>
      <trkpt lat="43.5676" lon="3.81">
        <ele>32.230620847608</ele>
        <time>2020-02-07T13:00:39Z</time>
      </trkpt>
      <trkpt lat="43.56745" lon="3.80982">
        <ele>32.427195613782</ele>
        <time>2020-02-07T13:00:43Z</time>
      </trkpt>
      <trkpt lat="43.56726" lon="3.80969">
        <ele>32.639158724957</ele>
        <time>2020-02-07T13:00:48Z</time>
      </trkpt>
      <trkpt lat="43.56711" lon="3.80978">
        <ele>32.823441209279</ele>
        <time>2020-02-07T13:00:52Z</time>
      </trkpt>
      <trkpt lat="43.56701" lon="3.80985">
        <ele>32.844759729954</ele>
        <time>2020-02-07T13:00:56Z</time>
      </trkpt>
      <trkpt lat="43.56693" lon="3.80972">
        <ele>32.875800028996</ele>
        <time>2020-02-07T13:01:01Z</time>
      </trkpt>
      <trkpt lat="43.56686" lon="3.80951">
        <ele>33.080981247524</ele>
        <time>2020-02-07T13:01:05Z</time>
      </trkpt>
      <trkpt lat="43.56681" lon="3.80926">
        <ele>33.192184140586</ele>
        <time>2020-02-07T13:01:09Z</time>
      </trkpt>
      <trkpt lat="43.56683" lon="3.80905">
        <ele>33.205176099302</ele>
        <time>2020-02-07T13:01:13Z</time>
      </trkpt>
      <trkpt lat="43.5668" lon="3.80877">
        <ele>33.312698434547</ele>
        <time>2020-02-07T13:01:18Z</time>
      </trkpt>
      <trkpt lat="43.56686" lon="3.80851">
        <ele>33.323073325439</ele>
        <time>2020-02-07T13:01:23Z</time>
      </trkpt>
      <trkpt lat="43.56683" lon="3.8084">
        <ele>33.315131059775</ele>
        <time>2020-02-07T13:01:28Z</time>
      </trkpt>
      <trkpt lat="43.56672" lon="3.80838">
        <ele>33.291973555415</ele>
        <time>2020-02-07T13:01:32Z</time>
      </trkpt>
      <trkpt lat="43.56655" lon="3.80837">
        <ele>33.245888668012</ele>
        <time>2020-02-07T13:01:37Z</time>
      </trkpt>
      <trkpt lat="43.56636" lon="3.80836">
        <ele>33.176491156121</ele>
        <time>2020-02-07T13:01:42Z</time>
      </trkpt>
      <trkpt lat="43.5662" lon="3.80834">
        <ele>33.104236551852</ele>
        <time>2020-02-07T13:01:46Z</time>
      </trkpt>
      <trkpt lat="43.56602" lon="3.80828">
        <ele>32.567621565089</ele>
        <time>2020-02-07T13:01:51Z</time>
      </trkpt>
      <trkpt lat="43.56588" lon="3.80825">
        <ele>32.36591690191</ele>
        <time>2020-02-07T13:01:55Z</time>
      </trkpt>
      <trkpt lat="43.56569" lon="3.80821">
        <ele>31.986639593867</ele>
        <time>2020-02-07T13:02:00Z</time>
      </trkpt>
      <trkpt lat="43.56553" lon="3.80819">
        <ele>31.882739806165</ele>
        <time>2020-02-07T13:02:04Z</time>
      </trkpt>
      <trkpt lat="43.56536" lon="3.80815">
        <ele>31.85384817429</ele>
        <time>2020-02-07T13:02:08Z</time>
      </trkpt>
      <trkpt lat="43.5652" lon="3.8081">
        <ele>31.654763602229</ele>
        <time>2020-02-07T13:02:12Z</time>
      </trkpt>
      <trkpt lat="43.56495" lon="3.80798">
        <ele>31.389569769392</ele>
        <time>2020-02-07T13:02:17Z</time>
      </trkpt>
      <trkpt lat="43.56477" lon="3.80784">
        <ele>31.063916870643</ele>
        <time>2020-02-07T13:02:21Z</time>
      </trkpt>
      <trkpt lat="43.56456" lon="3.80768">
        <ele>30.636459774153</ele>
        <time>2020-02-07T13:02:26Z</time>
      </trkpt>
      <trkpt lat="43.5644" lon="3.80757">
        <ele>30.319262877199</ele>
        <time>2020-02-07T13:02:30Z</time>
      </trkpt>
      <trkpt lat="43.5642" lon="3.80752">
        <ele>30.135815710963</ele>
        <time>2020-02-07T13:02:35Z</time>
      </trkpt>
      <trkpt lat="43.56401" lon="3.80742">
        <ele>30.062609436342</ele>
        <time>2020-02-07T13:02:40Z</time>
      </trkpt>
      <trkpt lat="43.56391" lon="3.8074">
        <ele>30.053429117895</ele>
        <time>2020-02-07T13:02:44Z</time>
      </trkpt>
      <trkpt lat="43.56383" lon="3.80744">
        <ele>30.020400149524</ele>
        <time>2020-02-07T13:02:51Z</time>
      </trkpt>
      <trkpt lat="43.56375" lon="3.80744">
        <ele>29.77139945823</ele>
        <time>2020-02-07T13:03:18Z</time>
      </trkpt>
      <trkpt lat="43.56365" lon="3.80744">
        <ele>29.628486075445</ele>
        <time>2020-02-07T13:03:22Z</time>
      </trkpt>
      <trkpt lat="43.56355" lon="3.80748">
        <ele>29.493853752521</ele>
        <time>2020-02-07T13:03:26Z</time>
      </trkpt>
      <trkpt lat="43.56336" lon="3.80751">
        <ele>29.328383076244</ele>
        <time>2020-02-07T13:03:31Z</time>
      </trkpt>
      <trkpt lat="43.5632" lon="3.80756">
        <ele>29.193913771873</ele>
        <time>2020-02-07T13:03:35Z</time>
      </trkpt>
      <trkpt lat="43.56299" lon="3.8076">
        <ele>29.024287470917</ele>
        <time>2020-02-07T13:03:40Z</time>
      </trkpt>
      <trkpt lat="43.56283" lon="3.80759">
        <ele>28.897074986699</ele>
        <time>2020-02-07T13:03:44Z</time>
      </trkpt>
      <trkpt lat="43.56267" lon="3.80766">
        <ele>28.778115750492</ele>
        <time>2020-02-07T13:03:48Z</time>
      </trkpt>
      <trkpt lat="43.56252" lon="3.80773">
        <ele>28.641993715521</ele>
        <time>2020-02-07T13:03:53Z</time>
      </trkpt>
      <trkpt lat="43.56238" lon="3.80777">
        <ele>28.542655532446</ele>
        <time>2020-02-07T13:03:57Z</time>
      </trkpt>
      <trkpt lat="43.56226" lon="3.8078">
        <ele>28.446501905679</ele>
        <time>2020-02-07T13:04:01Z</time>
      </trkpt>
      <trkpt lat="43.56208" lon="3.80773">
        <ele>27.962298472149</ele>
        <time>2020-02-07T13:04:05Z</time>
      </trkpt>
      <trkpt lat="43.56188" lon="3.80762">
        <ele>27.546044088188</ele>
        <time>2020-02-07T13:04:09Z</time>
      </trkpt>
      <trkpt lat="43.56168" lon="3.80754">
        <ele>27.423651106253</ele>
        <time>2020-02-07T13:04:14Z</time>
      </trkpt>
      <trkpt lat="43.56161" lon="3.80747">
        <ele>27.386592161674</ele>
        <time>2020-02-07T13:04:19Z</time>
      </trkpt>
      <trkpt lat="43.56141" lon="3.80744">
        <ele>27.339937105202</ele>
        <time>2020-02-07T13:04:24Z</time>
      </trkpt>
      <trkpt lat="43.56129" lon="3.8074">
        <ele>27.303775615131</ele>
        <time>2020-02-07T13:04:28Z</time>
      </trkpt>
      <trkpt lat="43.5612" lon="3.80744">
        <ele>27.269523792523</ele>
        <time>2020-02-07T13:04:32Z</time>
      </trkpt>
      <trkpt lat="43.56107" lon="3.80745">
        <ele>27.222252298115</ele>
        <time>2020-02-07T13:04:37Z</time>
      </trkpt>
      <trkpt lat="43.56087" lon="3.80744">
        <ele>27.18324829583</ele>
        <time>2020-02-07T13:04:41Z</time>
      </trkpt>
      <trkpt lat="43.56071" lon="3.80745">
        <ele>27.137996193284</ele>
        <time>2020-02-07T13:04:46Z</time>
      </trkpt>
      <trkpt lat="43.56058" lon="3.80746">
        <ele>27.095488631022</ele>
        <time>2020-02-07T13:04:50Z</time>
      </trkpt>
      <trkpt lat="43.56048" lon="3.80748">
        <ele>27.048698561413</ele>
        <time>2020-02-07T13:04:54Z</time>
      </trkpt>
      <trkpt lat="43.56035" lon="3.8075">
        <ele>26.984410546659</ele>
        <time>2020-02-07T13:04:59Z</time>
      </trkpt>
      <trkpt lat="43.56023" lon="3.80748">
        <ele>26.929149680395</ele>
        <time>2020-02-07T13:05:03Z</time>
      </trkpt>
      <trkpt lat="43.56011" lon="3.80746">
        <ele>26.874801969798</ele>
        <time>2020-02-07T13:05:07Z</time>
      </trkpt>
      <trkpt lat="43.55995" lon="3.80742">
        <ele>26.806391321248</ele>
        <time>2020-02-07T13:05:12Z</time>
      </trkpt>
      <trkpt lat="43.5598" lon="3.80739">
        <ele>26.750427959381</ele>
        <time>2020-02-07T13:05:16Z</time>
      </trkpt>
      <trkpt lat="43.55959" lon="3.8073">
        <ele>26.695746855636</ele>
        <time>2020-02-07T13:05:20Z</time>
      </trkpt>
      <trkpt lat="43.55946" lon="3.80724">
        <ele>26.642723339524</ele>
        <time>2020-02-07T13:05:24Z</time>
      </trkpt>
      <trkpt lat="43.55926" lon="3.80721">
        <ele>26.581917272901</ele>
        <time>2020-02-07T13:05:29Z</time>
      </trkpt>
      <trkpt lat="43.55911" lon="3.80719">
        <ele>26.542997604897</ele>
        <time>2020-02-07T13:05:33Z</time>
      </trkpt>
      <trkpt lat="43.55896" lon="3.80724">
        <ele>26.510485400356</ele>
        <time>2020-02-07T13:05:37Z</time>
      </trkpt>
      <trkpt lat="43.55878" lon="3.80735">
        <ele>26.473695382629</ele>
        <time>2020-02-07T13:05:42Z</time>
      </trkpt>
      <trkpt lat="43.55864" lon="3.80744">
        <ele>26.445308250758</ele>
        <time>2020-02-07T13:05:46Z</time>
      </trkpt>
      <trkpt lat="43.55853" lon="3.80751">
        <ele>26.416629394051</ele>
        <time>2020-02-07T13:05:50Z</time>
      </trkpt>
      <trkpt lat="43.55842" lon="3.80748">
        <ele>26.383831485602</ele>
        <time>2020-02-07T13:05:55Z</time>
      </trkpt>
      <trkpt lat="43.55833" lon="3.80745">
        <ele>26.356751540785</ele>
        <time>2020-02-07T13:05:59Z</time>
      </trkpt>
      <trkpt lat="43.55821" lon="3.80744">
        <ele>26.319433360928</ele>
        <time>2020-02-07T13:06:04Z</time>
      </trkpt>
      <trkpt lat="43.55815" lon="3.80736">
        <ele>26.264308736376</ele>
        <time>2020-02-07T13:06:18Z</time>
      </trkpt>
      <trkpt lat="43.55821" lon="3.8074">
        <ele>25.956439370926</ele>
        <time>2020-02-07T13:06:59Z</time>
      </trkpt>
      <trkpt lat="43.55829" lon="3.80746">
        <ele>25.902998239521</ele>
        <time>2020-02-07T13:07:03Z</time>
      </trkpt>
      <trkpt lat="43.55825" lon="3.80762">
        <ele>25.829961615768</ele>
        <time>2020-02-07T13:07:08Z</time>
      </trkpt>
      <trkpt lat="43.55824" lon="3.80776">
        <ele>25.761771168231</ele>
        <time>2020-02-07T13:07:12Z</time>
      </trkpt>
      <trkpt lat="43.5582" lon="3.80791">
        <ele>25.675707346521</ele>
        <time>2020-02-07T13:07:17Z</time>
      </trkpt>
      <trkpt lat="43.55811" lon="3.808">
        <ele>25.606325144315</ele>
        <time>2020-02-07T13:07:21Z</time>
      </trkpt>
      <trkpt lat="43.55804" lon="3.80799">
        <ele>25.539784523685</ele>
        <time>2020-02-07T13:07:25Z</time>
      </trkpt>
      <trkpt lat="43.55798" lon="3.80806">
        <ele>25.444984331198</ele>
        <time>2020-02-07T13:07:31Z</time>
      </trkpt>
      <trkpt lat="43.55798" lon="3.80827">
        <ele>25.366660690061</ele>
        <time>2020-02-07T13:07:36Z</time>
      </trkpt>
      <trkpt lat="43.55795" lon="3.80838">
        <ele>25.285147325435</ele>
        <time>2020-02-07T13:07:41Z</time>
      </trkpt>
      <trkpt lat="43.55796" lon="3.80854">
        <ele>25.205414250326</ele>
        <time>2020-02-07T13:07:46Z</time>
      </trkpt>
      <trkpt lat="43.55799" lon="3.80865">
        <ele>25.144203055376</ele>
        <time>2020-02-07T13:07:50Z</time>
      </trkpt>
      <trkpt lat="43.55804" lon="3.80882">
        <ele>25.08371347622</ele>
        <time>2020-02-07T13:07:55Z</time>
      </trkpt>
      <trkpt lat="43.55812" lon="3.80885">
        <ele>24.980881468476</ele>
        <time>2020-02-07T13:08:11Z</time>
      </trkpt>
      <trkpt lat="43.55817" lon="3.80894">
        <ele>24.930842285019</ele>
        <time>2020-02-07T13:08:15Z</time>
      </trkpt>
      <trkpt lat="43.55823" lon="3.8091">
        <ele>24.870888394617</ele>
        <time>2020-02-07T13:08:20Z</time>
      </trkpt>
      <trkpt lat="43.55824" lon="3.80921">
        <ele>24.823486183378</ele>
        <time>2020-02-07T13:08:24Z</time>
      </trkpt>
      <trkpt lat="43.55828" lon="3.80931">
        <ele>24.775124942954</ele>
        <time>2020-02-07T13:08:28Z</time>
      </trkpt>
      <trkpt lat="43.55836" lon="3.80942">
        <ele>24.717536286536</ele>
        <time>2020-02-07T13:08:33Z</time>
      </trkpt>
      <trkpt lat="43.55843" lon="3.80955">
        <ele>24.674496221592</ele>
        <time>2020-02-07T13:08:37Z</time>
      </trkpt>
      <trkpt lat="43.55851" lon="3.80969">
        <ele>24.617748968191</ele>
        <time>2020-02-07T13:08:42Z</time>
      </trkpt>
      <trkpt lat="43.5586" lon="3.80976">
        <ele>24.575186965084</ele>
        <time>2020-02-07T13:08:46Z</time>
      </trkpt>
      <trkpt lat="43.5587" lon="3.80991">
        <ele>24.525536210113</ele>
        <time>2020-02-07T13:08:51Z</time>
      </trkpt>
      <trkpt lat="43.55875" lon="3.81012">
        <ele>24.485038552041</ele>
        <time>2020-02-07T13:08:55Z</time>
      </trkpt>
      <trkpt lat="43.55881" lon="3.81023">
        <ele>24.445379316331</ele>
        <time>2020-02-07T13:08:59Z</time>
      </trkpt>
      <trkpt lat="43.55896" lon="3.81042">
        <ele>24.396680398285</ele>
        <time>2020-02-07T13:09:04Z</time>
      </trkpt>
      <trkpt lat="43.55906" lon="3.81045">
        <ele>24.360404700165</ele>
        <time>2020-02-07T13:09:08Z</time>
      </trkpt>
      <trkpt lat="43.55916" lon="3.81049">
        <ele>24.303746530707</ele>
        <time>2020-02-07T13:09:13Z</time>
      </trkpt>
      <trkpt lat="43.55929" lon="3.81057">
        <ele>24.259287890176</ele>
        <time>2020-02-07T13:09:17Z</time>
      </trkpt>
      <trkpt lat="43.55943" lon="3.81076">
        <ele>24.194606106098</ele>
        <time>2020-02-07T13:09:22Z</time>
      </trkpt>
      <trkpt lat="43.55964" lon="3.81094">
        <ele>24.129451248971</ele>
        <time>2020-02-07T13:09:27Z</time>
      </trkpt>
      <trkpt lat="43.55973" lon="3.81105">
        <ele>24.079349488411</ele>
        <time>2020-02-07T13:09:31Z</time>
      </trkpt>
      <trkpt lat="43.55982" lon="3.81116">
        <ele>24.018087477123</ele>
        <time>2020-02-07T13:09:36Z</time>
      </trkpt>
      <trkpt lat="43.55995" lon="3.81139">
        <ele>23.96593734892</ele>
        <time>2020-02-07T13:09:40Z</time>
      </trkpt>
      <trkpt lat="43.56002" lon="3.81147">
        <ele>23.893746385042</ele>
        <time>2020-02-07T13:09:46Z</time>
      </trkpt>
      <trkpt lat="43.56006" lon="3.81154">
        <ele>23.830528396558</ele>
        <time>2020-02-07T13:09:51Z</time>
      </trkpt>
      <trkpt lat="43.56012" lon="3.81168">
        <ele>23.759326865898</ele>
        <time>2020-02-07T13:09:56Z</time>
      </trkpt>
      <trkpt lat="43.56019" lon="3.81187">
        <ele>23.688248792073</ele>
        <time>2020-02-07T13:10:01Z</time>
      </trkpt>
      <trkpt lat="43.56024" lon="3.81202">
        <ele>23.618153334092</ele>
        <time>2020-02-07T13:10:06Z</time>
      </trkpt>
      <trkpt lat="43.56028" lon="3.81214">
        <ele>23.562914106248</ele>
        <time>2020-02-07T13:10:10Z</time>
      </trkpt>
      <trkpt lat="43.56026" lon="3.81229">
        <ele>23.496257080093</ele>
        <time>2020-02-07T13:10:15Z</time>
      </trkpt>
      <trkpt lat="43.56027" lon="3.81242">
        <ele>23.443852039289</ele>
        <time>2020-02-07T13:10:19Z</time>
      </trkpt>
      <trkpt lat="43.56025" lon="3.81253">
        <ele>23.38864749771</ele>
        <time>2020-02-07T13:10:23Z</time>
      </trkpt>
      <trkpt lat="43.56027" lon="3.81266">
        <ele>23.335567693335</ele>
        <time>2020-02-07T13:10:27Z</time>
      </trkpt>
      <trkpt lat="43.56032" lon="3.81282">
        <ele>23.271060453508</ele>
        <time>2020-02-07T13:10:32Z</time>
      </trkpt>
      <trkpt lat="43.56031" lon="3.81295">
        <ele>23.222561174959</ele>
        <time>2020-02-07T13:10:36Z</time>
      </trkpt>
      <trkpt lat="43.56028" lon="3.81315">
        <ele>23.178259590525</ele>
        <time>2020-02-07T13:10:40Z</time>
      </trkpt>
      <trkpt lat="43.56022" lon="3.81339">
        <ele>23.120809184074</ele>
        <time>2020-02-07T13:10:45Z</time>
      </trkpt>
      <trkpt lat="43.56013" lon="3.81353">
        <ele>23.072477748673</ele>
        <time>2020-02-07T13:10:49Z</time>
      </trkpt>
      <trkpt lat="43.56013" lon="3.81366">
        <ele>23.018709937966</ele>
        <time>2020-02-07T13:10:53Z</time>
      </trkpt>
      <trkpt lat="43.56016" lon="3.81383">
        <ele>22.964744626884</ele>
        <time>2020-02-07T13:10:57Z</time>
      </trkpt>
      <trkpt lat="43.56016" lon="3.814">
        <ele>22.917071854456</ele>
        <time>2020-02-07T13:11:01Z</time>
      </trkpt>
      <trkpt lat="43.56016" lon="3.8142">
        <ele>22.861269001352</ele>
        <time>2020-02-07T13:11:06Z</time>
      </trkpt>
      <trkpt lat="43.56015" lon="3.81431">
        <ele>22.817039564485</ele>
        <time>2020-02-07T13:11:10Z</time>
      </trkpt>
      <trkpt lat="43.56011" lon="3.81456">
        <ele>22.761798664819</ele>
        <time>2020-02-07T13:11:15Z</time>
      </trkpt>
      <trkpt lat="43.56009" lon="3.81467">
        <ele>22.665822158757</ele>
        <time>2020-02-07T13:11:23Z</time>
      </trkpt>
      <trkpt lat="43.55997" lon="3.81492">
        <ele>22.608547848081</ele>
        <time>2020-02-07T13:11:27Z</time>
      </trkpt>
      <trkpt lat="43.55986" lon="3.81512">
        <ele>22.545664299073</ele>
        <time>2020-02-07T13:11:31Z</time>
      </trkpt>
      <trkpt lat="43.55977" lon="3.81527">
        <ele>22.482845903934</ele>
        <time>2020-02-07T13:11:35Z</time>
      </trkpt>
      <trkpt lat="43.55973" lon="3.81536">
        <ele>22.404397085097</ele>
        <time>2020-02-07T13:11:40Z</time>
      </trkpt>
      <trkpt lat="43.55966" lon="3.81546">
        <ele>22.342721923648</ele>
        <time>2020-02-07T13:11:44Z</time>
      </trkpt>
      <trkpt lat="43.5596" lon="3.81556">
        <ele>22.234406984458</ele>
        <time>2020-02-07T13:12:04Z</time>
      </trkpt>
      <trkpt lat="43.55956" lon="3.81564">
        <ele>22.043121322405</ele>
        <time>2020-02-07T13:12:42Z</time>
      </trkpt>
      <trkpt lat="43.55948" lon="3.8157">
        <ele>21.992505168841</ele>
        <time>2020-02-07T13:12:46Z</time>
      </trkpt>
      <trkpt lat="43.55943" lon="3.8158">
        <ele>21.940669648203</ele>
        <time>2020-02-07T13:12:50Z</time>
      </trkpt>
      <trkpt lat="43.55938" lon="3.81589">
        <ele>21.84998433175</ele>
        <time>2020-02-07T13:12:57Z</time>
      </trkpt>
      <trkpt lat="43.55935" lon="3.816">
        <ele>21.796247060411</ele>
        <time>2020-02-07T13:13:02Z</time>
      </trkpt>
      <trkpt lat="43.55927" lon="3.81607">
        <ele>21.706549442177</ele>
        <time>2020-02-07T13:13:09Z</time>
      </trkpt>
      <trkpt lat="43.55916" lon="3.8162">
        <ele>21.634733354429</ele>
        <time>2020-02-07T13:13:14Z</time>
      </trkpt>
      <trkpt lat="43.5591" lon="3.81627">
        <ele>21.559587548061</ele>
        <time>2020-02-07T13:13:19Z</time>
      </trkpt>
      <trkpt lat="43.55901" lon="3.8163">
        <ele>21.482298833318</ele>
        <time>2020-02-07T13:13:24Z</time>
      </trkpt>
      <trkpt lat="43.55892" lon="3.81635">
        <ele>21.434311118764</ele>
        <time>2020-02-07T13:13:28Z</time>
      </trkpt>
      <trkpt lat="43.55884" lon="3.81638">
        <ele>21.343918787084</ele>
        <time>2020-02-07T13:13:34Z</time>
      </trkpt>
      <trkpt lat="43.55876" lon="3.81645">
        <ele>21.153411819592</ele>
        <time>2020-02-07T13:13:56Z</time>
      </trkpt>
      <trkpt lat="43.55869" lon="3.8165">
        <ele>21.081674917304</ele>
        <time>2020-02-07T13:14:07Z</time>
      </trkpt>
      <trkpt lat="43.55862" lon="3.81653">
        <ele>21.046786342159</ele>
        <time>2020-02-07T13:14:12Z</time>
      </trkpt>
      <trkpt lat="43.5585" lon="3.81659">
        <ele>21.004425561759</ele>
        <time>2020-02-07T13:14:17Z</time>
      </trkpt>
      <trkpt lat="43.55841" lon="3.81659">
        <ele>20.96426784848</ele>
        <time>2020-02-07T13:14:23Z</time>
      </trkpt>
      <trkpt lat="43.55834" lon="3.81667">
        <ele>20.933565767238</ele>
        <time>2020-02-07T13:14:29Z</time>
      </trkpt>
      <trkpt lat="43.55817" lon="3.8168">
        <ele>20.905876583753</ele>
        <time>2020-02-07T13:14:34Z</time>
      </trkpt>
      <trkpt lat="43.55802" lon="3.81687">
        <ele>20.880519427353</ele>
        <time>2020-02-07T13:14:39Z</time>
      </trkpt>
      <trkpt lat="43.5579" lon="3.81683">
        <ele>20.858186957181</ele>
        <time>2020-02-07T13:14:44Z</time>
      </trkpt>
      <trkpt lat="43.55783" lon="3.81699">
        <ele>20.84037953181</ele>
        <time>2020-02-07T13:14:48Z</time>
      </trkpt>
      <trkpt lat="43.55771" lon="3.81705">
        <ele>20.816048816656</ele>
        <time>2020-02-07T13:14:53Z</time>
      </trkpt>
      <trkpt lat="43.55761" lon="3.81721">
        <ele>20.795953959869</ele>
        <time>2020-02-07T13:14:57Z</time>
      </trkpt>
      <trkpt lat="43.55751" lon="3.8173">
        <ele>20.77405909194</ele>
        <time>2020-02-07T13:15:01Z</time>
      </trkpt>
      <trkpt lat="43.55738" lon="3.81737">
        <ele>20.752457714885</ele>
        <time>2020-02-07T13:15:05Z</time>
      </trkpt>
      <trkpt lat="43.55727" lon="3.81748">
        <ele>20.72512875398</ele>
        <time>2020-02-07T13:15:10Z</time>
      </trkpt>
      <trkpt lat="43.55721" lon="3.81756">
        <ele>20.702598828023</ele>
        <time>2020-02-07T13:15:14Z</time>
      </trkpt>
      <trkpt lat="43.5571" lon="3.81764">
        <ele>20.67590308796</ele>
        <time>2020-02-07T13:15:19Z</time>
      </trkpt>
      <trkpt lat="43.55694" lon="3.81775">
        <ele>20.64859526166</ele>
        <time>2020-02-07T13:15:24Z</time>
      </trkpt>
      <trkpt lat="43.5568" lon="3.81786">
        <ele>20.622368716959</ele>
        <time>2020-02-07T13:15:28Z</time>
      </trkpt>
      <trkpt lat="43.55666" lon="3.81791">
        <ele>20.586083059861</ele>
        <time>2020-02-07T13:15:33Z</time>
      </trkpt>
      <trkpt lat="43.55653" lon="3.81795">
        <ele>20.554564914145</ele>
        <time>2020-02-07T13:15:38Z</time>
      </trkpt>
      <trkpt lat="43.55643" lon="3.81801">
        <ele>20.534309208162</ele>
        <time>2020-02-07T13:15:42Z</time>
      </trkpt>
      <trkpt lat="43.55633" lon="3.8181">
        <ele>20.507015252599</ele>
        <time>2020-02-07T13:15:47Z</time>
      </trkpt>
      <trkpt lat="43.55626" lon="3.81818">
        <ele>20.483590610904</ele>
        <time>2020-02-07T13:15:51Z</time>
      </trkpt>
      <trkpt lat="43.5562" lon="3.81826">
        <ele>20.455574268549</ele>
        <time>2020-02-07T13:15:55Z</time>
      </trkpt>
      <trkpt lat="43.55611" lon="3.81831">
        <ele>20.428044678037</ele>
        <time>2020-02-07T13:15:59Z</time>
      </trkpt>
      <trkpt lat="43.55601" lon="3.8184">
        <ele>20.401945171051</ele>
        <time>2020-02-07T13:16:03Z</time>
      </trkpt>
      <trkpt lat="43.55589" lon="3.81851">
        <ele>20.374297042692</ele>
        <time>2020-02-07T13:16:08Z</time>
      </trkpt>
      <trkpt lat="43.55585" lon="3.81863">
        <ele>20.347042542912</ele>
        <time>2020-02-07T13:16:13Z</time>
      </trkpt>
      <trkpt lat="43.55583" lon="3.81856">
        <ele>20.269477168947</ele>
        <time>2020-02-07T13:16:40Z</time>
      </trkpt>
      <trkpt lat="43.55572" lon="3.81838">
        <ele>20.23781679053</ele>
        <time>2020-02-07T13:16:45Z</time>
      </trkpt>
      <trkpt lat="43.55561" lon="3.81832">
        <ele>20.205459295087</ele>
        <time>2020-02-07T13:16:50Z</time>
      </trkpt>
      <trkpt lat="43.55554" lon="3.81842">
        <ele>20.181693668422</ele>
        <time>2020-02-07T13:16:54Z</time>
      </trkpt>
      <trkpt lat="43.5555" lon="3.8185">
        <ele>20.142802340045</ele>
        <time>2020-02-07T13:17:00Z</time>
      </trkpt>
      <trkpt lat="43.55542" lon="3.81859">
        <ele>20.117210935771</ele>
        <time>2020-02-07T13:17:04Z</time>
      </trkpt>
      <trkpt lat="43.55533" lon="3.81875">
        <ele>20.094814350263</ele>
        <time>2020-02-07T13:17:08Z</time>
      </trkpt>
      <trkpt lat="43.55523" lon="3.81892">
        <ele>20.067875815778</ele>
        <time>2020-02-07T13:17:13Z</time>
      </trkpt>
      <trkpt lat="43.55515" lon="3.81901">
        <ele>20.048424015603</ele>
        <time>2020-02-07T13:17:17Z</time>
      </trkpt>
      <trkpt lat="43.55503" lon="3.81909">
        <ele>20.017990914926</ele>
        <time>2020-02-07T13:17:22Z</time>
      </trkpt>
      <trkpt lat="43.55494" lon="3.81913">
        <ele>19.992982169483</ele>
        <time>2020-02-07T13:17:26Z</time>
      </trkpt>
      <trkpt lat="43.55485" lon="3.81918">
        <ele>19.962653493007</ele>
        <time>2020-02-07T13:17:31Z</time>
      </trkpt>
      <trkpt lat="43.55476" lon="3.81919">
        <ele>19.943059842701</ele>
        <time>2020-02-07T13:17:35Z</time>
      </trkpt>
      <trkpt lat="43.5547" lon="3.81924">
        <ele>19.916962672593</ele>
        <time>2020-02-07T13:17:42Z</time>
      </trkpt>
      <trkpt lat="43.55463" lon="3.81928">
        <ele>19.900658655374</ele>
        <time>2020-02-07T13:17:46Z</time>
      </trkpt>
      <trkpt lat="43.55451" lon="3.8193">
        <ele>19.883741497867</ele>
        <time>2020-02-07T13:17:50Z</time>
      </trkpt>
      <trkpt lat="43.55438" lon="3.81941">
        <ele>19.863885262404</ele>
        <time>2020-02-07T13:17:54Z</time>
      </trkpt>
      <trkpt lat="43.55428" lon="3.81952">
        <ele>19.844946049344</ele>
        <time>2020-02-07T13:17:58Z</time>
      </trkpt>
      <trkpt lat="43.55416" lon="3.81961">
        <ele>19.824470882295</ele>
        <time>2020-02-07T13:18:03Z</time>
      </trkpt>
      <trkpt lat="43.55408" lon="3.81969">
        <ele>19.813600229721</ele>
        <time>2020-02-07T13:18:07Z</time>
      </trkpt>
      <trkpt lat="43.554" lon="3.81972">
        <ele>19.799412702662</ele>
        <time>2020-02-07T13:18:19Z</time>
      </trkpt>
      <trkpt lat="43.55395" lon="3.81982">
        <ele>19.767602990273</ele>
        <time>2020-02-07T13:18:33Z</time>
      </trkpt>
      <trkpt lat="43.55389" lon="3.81989">
        <ele>19.727823726544</ele>
        <time>2020-02-07T13:18:54Z</time>
      </trkpt>
      <trkpt lat="43.55384" lon="3.81996">
        <ele>19.711301616566</ele>
        <time>2020-02-07T13:18:59Z</time>
      </trkpt>
      <trkpt lat="43.55374" lon="3.8202">
        <ele>19.605476114724</ele>
        <time>2020-02-07T13:19:04Z</time>
      </trkpt>
      <trkpt lat="43.55369" lon="3.82045">
        <ele>19.596694033657</ele>
        <time>2020-02-07T13:19:09Z</time>
      </trkpt>
      <trkpt lat="43.55354" lon="3.82047">
        <ele>19.587811128181</ele>
        <time>2020-02-07T13:19:13Z</time>
      </trkpt>
      <trkpt lat="43.55342" lon="3.82049">
        <ele>19.580734437062</ele>
        <time>2020-02-07T13:19:17Z</time>
      </trkpt>
      <trkpt lat="43.55348" lon="3.82051">
        <ele>19.565538768664</ele>
        <time>2020-02-07T13:19:24Z</time>
      </trkpt>
      <trkpt lat="43.55356" lon="3.82038">
        <ele>19.550399952532</ele>
        <time>2020-02-07T13:19:28Z</time>
      </trkpt>
      <trkpt lat="43.55365" lon="3.82032">
        <ele>19.492993253727</ele>
        <time>2020-02-07T13:19:35Z</time>
      </trkpt>
      <trkpt lat="43.55383" lon="3.82009">
        <ele>19.488372902096</ele>
        <time>2020-02-07T13:19:39Z</time>
      </trkpt>
      <trkpt lat="43.55405" lon="3.81998">
        <ele>19.485290840515</ele>
        <time>2020-02-07T13:19:43Z</time>
      </trkpt>
      <trkpt lat="43.55412" lon="3.81994">
        <ele>19.478188836889</ele>
        <time>2020-02-07T13:19:48Z</time>
      </trkpt>
      <trkpt lat="43.5542" lon="3.81988">
        <ele>19.470965935604</ele>
        <time>2020-02-07T13:19:53Z</time>
      </trkpt>
      <trkpt lat="43.55426" lon="3.81983">
        <ele>19.46423072242</ele>
        <time>2020-02-07T13:19:57Z</time>
      </trkpt>
      <trkpt lat="43.55435" lon="3.81977">
        <ele>19.458090079423</ele>
        <time>2020-02-07T13:20:02Z</time>
      </trkpt>
      <trkpt lat="43.55446" lon="3.81969">
        <ele>19.448792038382</ele>
        <time>2020-02-07T13:20:06Z</time>
      </trkpt>
      <trkpt lat="43.55458" lon="3.81961">
        <ele>19.435203399757</ele>
        <time>2020-02-07T13:20:11Z</time>
      </trkpt>
      <trkpt lat="43.55471" lon="3.81951">
        <ele>19.422901414539</ele>
        <time>2020-02-07T13:20:15Z</time>
      </trkpt>
      <trkpt lat="43.55487" lon="3.81941">
        <ele>19.404432968279</ele>
        <time>2020-02-07T13:20:20Z</time>
      </trkpt>
      <trkpt lat="43.55499" lon="3.81931">
        <ele>19.381328328373</ele>
        <time>2020-02-07T13:20:25Z</time>
      </trkpt>
      <trkpt lat="43.55505" lon="3.81923">
        <ele>19.358582011323</ele>
        <time>2020-02-07T13:20:31Z</time>
      </trkpt>
      <trkpt lat="43.55522" lon="3.81913">
        <ele>19.334741880144</ele>
        <time>2020-02-07T13:20:36Z</time>
      </trkpt>
      <trkpt lat="43.5554" lon="3.81905">
        <ele>19.308422684571</ele>
        <time>2020-02-07T13:20:40Z</time>
      </trkpt>
      <trkpt lat="43.55551" lon="3.81897">
        <ele>19.28398481173</ele>
        <time>2020-02-07T13:20:44Z</time>
      </trkpt>
      <trkpt lat="43.55562" lon="3.81889">
        <ele>19.262495238158</ele>
        <time>2020-02-07T13:20:48Z</time>
      </trkpt>
      <trkpt lat="43.55575" lon="3.8188">
        <ele>19.247762915583</ele>
        <time>2020-02-07T13:20:52Z</time>
      </trkpt>
      <trkpt lat="43.55584" lon="3.81871">
        <ele>19.229213142074</ele>
        <time>2020-02-07T13:20:57Z</time>
      </trkpt>
      <trkpt lat="43.55591" lon="3.81868">
        <ele>19.20915598869</ele>
        <time>2020-02-07T13:21:01Z</time>
      </trkpt>
      <trkpt lat="43.556" lon="3.8186">
        <ele>19.188219623648</ele>
        <time>2020-02-07T13:21:05Z</time>
      </trkpt>
      <trkpt lat="43.5561" lon="3.81856">
        <ele>19.163745466097</ele>
        <time>2020-02-07T13:21:10Z</time>
      </trkpt>
      <trkpt lat="43.55619" lon="3.81849">
        <ele>19.144983745703</ele>
        <time>2020-02-07T13:21:14Z</time>
      </trkpt>
      <trkpt lat="43.55627" lon="3.81847">
        <ele>19.12573095639</ele>
        <time>2020-02-07T13:21:18Z</time>
      </trkpt>
      <trkpt lat="43.55637" lon="3.81844">
        <ele>19.106532351592</ele>
        <time>2020-02-07T13:21:23Z</time>
      </trkpt>
      <trkpt lat="43.55644" lon="3.8184">
        <ele>19.098583773336</ele>
        <time>2020-02-07T13:21:27Z</time>
      </trkpt>
      <trkpt lat="43.55652" lon="3.81837">
        <ele>19.096223661756</ele>
        <time>2020-02-07T13:21:31Z</time>
      </trkpt>
      <trkpt lat="43.55662" lon="3.81832">
        <ele>19.103791529999</ele>
        <time>2020-02-07T13:21:36Z</time>
      </trkpt>
      <trkpt lat="43.55669" lon="3.81828">
        <ele>19.118348054515</ele>
        <time>2020-02-07T13:21:40Z</time>
      </trkpt>
      <trkpt lat="43.55676" lon="3.81825">
        <ele>19.143456260541</ele>
        <time>2020-02-07T13:21:44Z</time>
      </trkpt>
      <trkpt lat="43.55686" lon="3.81822">
        <ele>19.18756016289</ele>
        <time>2020-02-07T13:21:49Z</time>
      </trkpt>
      <trkpt lat="43.55694" lon="3.81819">
        <ele>19.238541159475</ele>
        <time>2020-02-07T13:21:54Z</time>
      </trkpt>
      <trkpt lat="43.55701" lon="3.81819">
        <ele>19.283346056889</ele>
        <time>2020-02-07T13:21:58Z</time>
      </trkpt>
      <trkpt lat="43.55709" lon="3.81824">
        <ele>19.338882701914</ele>
        <time>2020-02-07T13:22:03Z</time>
      </trkpt>
      <trkpt lat="43.55716" lon="3.81828">
        <ele>19.379748012737</ele>
        <time>2020-02-07T13:22:07Z</time>
      </trkpt>
      <trkpt lat="43.55723" lon="3.81835">
        <ele>19.418600499025</ele>
        <time>2020-02-07T13:22:11Z</time>
      </trkpt>
      <trkpt lat="43.55731" lon="3.81841">
        <ele>19.466075750749</ele>
        <time>2020-02-07T13:22:16Z</time>
      </trkpt>
      <trkpt lat="43.55738" lon="3.81846">
        <ele>19.51071972852</ele>
        <time>2020-02-07T13:22:21Z</time>
      </trkpt>
      <trkpt lat="43.55745" lon="3.81852">
        <ele>19.543499967309</ele>
        <time>2020-02-07T13:22:25Z</time>
      </trkpt>
      <trkpt lat="43.55752" lon="3.81858">
        <ele>19.577641518331</ele>
        <time>2020-02-07T13:22:30Z</time>
      </trkpt>
      <trkpt lat="43.55758" lon="3.81864">
        <ele>19.607699704301</ele>
        <time>2020-02-07T13:22:35Z</time>
      </trkpt>
      <trkpt lat="43.55766" lon="3.81869">
        <ele>19.6453360852</ele>
        <time>2020-02-07T13:22:41Z</time>
      </trkpt>
      <trkpt lat="43.55774" lon="3.81872">
        <ele>19.67981503915</ele>
        <time>2020-02-07T13:22:46Z</time>
      </trkpt>
      <trkpt lat="43.55784" lon="3.81876">
        <ele>19.730962737344</ele>
        <time>2020-02-07T13:22:51Z</time>
      </trkpt>
      <trkpt lat="43.55792" lon="3.8188">
        <ele>19.798437432752</ele>
        <time>2020-02-07T13:22:56Z</time>
      </trkpt>
      <trkpt lat="43.55799" lon="3.81883">
        <ele>19.866816404255</ele>
        <time>2020-02-07T13:23:01Z</time>
      </trkpt>
      <trkpt lat="43.55807" lon="3.81879">
        <ele>19.937277882913</ele>
        <time>2020-02-07T13:23:06Z</time>
      </trkpt>
      <trkpt lat="43.55816" lon="3.8187">
        <ele>20.020620690307</ele>
        <time>2020-02-07T13:23:11Z</time>
      </trkpt>
      <trkpt lat="43.55819" lon="3.81859">
        <ele>20.245319991594</ele>
        <time>2020-02-07T13:23:35Z</time>
      </trkpt>
      <trkpt lat="43.55816" lon="3.81849">
        <ele>20.506223552812</ele>
        <time>2020-02-07T13:23:45Z</time>
      </trkpt>
      <trkpt lat="43.55813" lon="3.81837">
        <ele>20.734410207165</ele>
        <time>2020-02-07T13:23:52Z</time>
      </trkpt>
      <trkpt lat="43.55811" lon="3.81827">
        <ele>20.887296240152</ele>
        <time>2020-02-07T13:23:57Z</time>
      </trkpt>
      <trkpt lat="43.5581" lon="3.81815">
        <ele>21.069788844051</ele>
        <time>2020-02-07T13:24:03Z</time>
      </trkpt>
      <trkpt lat="43.5581" lon="3.81803">
        <ele>21.222504621723</ele>
        <time>2020-02-07T13:24:08Z</time>
      </trkpt>
      <trkpt lat="43.55816" lon="3.81794">
        <ele>21.411994533359</ele>
        <time>2020-02-07T13:24:14Z</time>
      </trkpt>
      <trkpt lat="43.55824" lon="3.81799">
        <ele>21.564392603577</ele>
        <time>2020-02-07T13:24:19Z</time>
      </trkpt>
      <trkpt lat="43.55833" lon="3.81804">
        <ele>21.702066985448</ele>
        <time>2020-02-07T13:24:24Z</time>
      </trkpt>
      <trkpt lat="43.55841" lon="3.81802">
        <ele>21.847881806217</ele>
        <time>2020-02-07T13:24:30Z</time>
      </trkpt>
      <trkpt lat="43.5585" lon="3.81799">
        <ele>21.95888987894</ele>
        <time>2020-02-07T13:24:35Z</time>
      </trkpt>
      <trkpt lat="43.55859" lon="3.81797">
        <ele>22.041793869547</ele>
        <time>2020-02-07T13:24:39Z</time>
      </trkpt>
      <trkpt lat="43.55868" lon="3.81791">
        <ele>22.141697338335</ele>
        <time>2020-02-07T13:24:44Z</time>
      </trkpt>
      <trkpt lat="43.55874" lon="3.81784">
        <ele>22.24963771891</ele>
        <time>2020-02-07T13:24:49Z</time>
      </trkpt>
      <trkpt lat="43.5588" lon="3.81774">
        <ele>22.367140800364</ele>
        <time>2020-02-07T13:24:54Z</time>
      </trkpt>
      <trkpt lat="43.55884" lon="3.81763">
        <ele>22.517022687467</ele>
        <time>2020-02-07T13:25:00Z</time>
      </trkpt>
      <trkpt lat="43.5589" lon="3.81754">
        <ele>22.618081688164</ele>
        <time>2020-02-07T13:25:04Z</time>
      </trkpt>
      <trkpt lat="43.55896" lon="3.81745">
        <ele>22.74964705761</ele>
        <time>2020-02-07T13:25:09Z</time>
      </trkpt>
      <trkpt lat="43.55902" lon="3.81736">
        <ele>22.86296834036</ele>
        <time>2020-02-07T13:25:13Z</time>
      </trkpt>
      <trkpt lat="43.55909" lon="3.81728">
        <ele>23.011785657515</ele>
        <time>2020-02-07T13:25:18Z</time>
      </trkpt>
      <trkpt lat="43.55918" lon="3.81723">
        <ele>23.130090167632</ele>
        <time>2020-02-07T13:25:22Z</time>
      </trkpt>
      <trkpt lat="43.55927" lon="3.81717">
        <ele>23.278099365572</ele>
        <time>2020-02-07T13:25:27Z</time>
      </trkpt>
      <trkpt lat="43.55938" lon="3.81717">
        <ele>23.445387489678</ele>
        <time>2020-02-07T13:25:32Z</time>
      </trkpt>
      <trkpt lat="43.55945" lon="3.81723">
        <ele>23.623667765012</ele>
        <time>2020-02-07T13:25:37Z</time>
      </trkpt>
      <trkpt lat="43.55957" lon="3.81728">
        <ele>23.804630855025</ele>
        <time>2020-02-07T13:25:42Z</time>
      </trkpt>
      <trkpt lat="43.55967" lon="3.81734">
        <ele>23.989898687149</ele>
        <time>2020-02-07T13:25:47Z</time>
      </trkpt>
      <trkpt lat="43.55974" lon="3.81738">
        <ele>24.132041529952</ele>
        <time>2020-02-07T13:25:51Z</time>
      </trkpt>
      <trkpt lat="43.55983" lon="3.81741">
        <ele>24.274059158966</ele>
        <time>2020-02-07T13:25:55Z</time>
      </trkpt>
      <trkpt lat="43.55993" lon="3.81749">
        <ele>24.446290105025</ele>
        <time>2020-02-07T13:26:00Z</time>
      </trkpt>
      <trkpt lat="43.55994" lon="3.81759">
        <ele>24.633139444313</ele>
        <time>2020-02-07T13:26:06Z</time>
      </trkpt>
      <trkpt lat="43.55989" lon="3.81774">
        <ele>24.749655132214</ele>
        <time>2020-02-07T13:26:10Z</time>
      </trkpt>
      <trkpt lat="43.55988" lon="3.81789">
        <ele>24.864971152615</ele>
        <time>2020-02-07T13:26:14Z</time>
      </trkpt>
      <trkpt lat="43.55981" lon="3.8181">
        <ele>25.452586506236</ele>
        <time>2020-02-07T13:26:19Z</time>
      </trkpt>
      <trkpt lat="43.5597" lon="3.81824">
        <ele>25.751119331573</ele>
        <time>2020-02-07T13:26:23Z</time>
      </trkpt>
      <trkpt lat="43.55957" lon="3.81838">
        <ele>25.841532267295</ele>
        <time>2020-02-07T13:26:27Z</time>
      </trkpt>
      <trkpt lat="43.55947" lon="3.81858">
        <ele>25.722522908194</ele>
        <time>2020-02-07T13:26:32Z</time>
      </trkpt>
      <trkpt lat="43.55937" lon="3.81876">
        <ele>25.561742008212</ele>
        <time>2020-02-07T13:26:36Z</time>
      </trkpt>
      <trkpt lat="43.55933" lon="3.81905">
        <ele>24.92054423154</ele>
        <time>2020-02-07T13:26:41Z</time>
      </trkpt>
      <trkpt lat="43.55934" lon="3.81919">
        <ele>24.763870967221</ele>
        <time>2020-02-07T13:26:45Z</time>
      </trkpt>
      <trkpt lat="43.55931" lon="3.81929">
        <ele>24.656351722631</ele>
        <time>2020-02-07T13:26:50Z</time>
      </trkpt>
      <trkpt lat="43.55922" lon="3.81939">
        <ele>24.623423231591</ele>
        <time>2020-02-07T13:26:54Z</time>
      </trkpt>
      <trkpt lat="43.55905" lon="3.81939">
        <ele>24.799105847827</ele>
        <time>2020-02-07T13:26:59Z</time>
      </trkpt>
      <trkpt lat="43.55897" lon="3.81949">
        <ele>25.112466020784</ele>
        <time>2020-02-07T13:27:03Z</time>
      </trkpt>
      <trkpt lat="43.55879" lon="3.81957">
        <ele>25.568923754644</ele>
        <time>2020-02-07T13:27:08Z</time>
      </trkpt>
      <trkpt lat="43.55865" lon="3.8195">
        <ele>27.018083339021</ele>
        <time>2020-02-07T13:27:12Z</time>
      </trkpt>
      <trkpt lat="43.55851" lon="3.8195">
        <ele>27.464651896908</ele>
        <time>2020-02-07T13:27:16Z</time>
      </trkpt>
      <trkpt lat="43.55839" lon="3.81959">
        <ele>28.057470482964</ele>
        <time>2020-02-07T13:27:21Z</time>
      </trkpt>
      <trkpt lat="43.5584" lon="3.81948">
        <ele>29.967029955719</ele>
        <time>2020-02-07T13:27:38Z</time>
      </trkpt>
      <trkpt lat="43.55835" lon="3.81939">
        <ele>30.548782999851</ele>
        <time>2020-02-07T13:27:42Z</time>
      </trkpt>
      <trkpt lat="43.55827" lon="3.8193">
        <ele>31.124701048271</ele>
        <time>2020-02-07T13:27:46Z</time>
      </trkpt>
      <trkpt lat="43.55807" lon="3.81924">
        <ele>35.759189787441</ele>
        <time>2020-02-07T13:27:51Z</time>
      </trkpt>
      <trkpt lat="43.55791" lon="3.8192">
        <ele>37.540412560863</ele>
        <time>2020-02-07T13:27:55Z</time>
      </trkpt>
      <trkpt lat="43.55771" lon="3.81928">
        <ele>38.606822873312</ele>
        <time>2020-02-07T13:28:00Z</time>
      </trkpt>
      <trkpt lat="43.55757" lon="3.81931">
        <ele>38.654344100484</ele>
        <time>2020-02-07T13:28:04Z</time>
      </trkpt>
      <trkpt lat="43.55741" lon="3.81937">
        <ele>38.80182273628</ele>
        <time>2020-02-07T13:28:08Z</time>
      </trkpt>
      <trkpt lat="43.55724" lon="3.81947">
        <ele>38.855438029595</ele>
        <time>2020-02-07T13:28:13Z</time>
      </trkpt>
      <trkpt lat="43.55711" lon="3.81951">
        <ele>38.906437262975</ele>
        <time>2020-02-07T13:28:17Z</time>
      </trkpt>
      <trkpt lat="43.55693" lon="3.81952">
        <ele>38.960358917004</ele>
        <time>2020-02-07T13:28:22Z</time>
      </trkpt>
      <trkpt lat="43.55675" lon="3.81952">
        <ele>39.030779383572</ele>
        <time>2020-02-07T13:28:27Z</time>
      </trkpt>
      <trkpt lat="43.55664" lon="3.8196">
        <ele>39.074156741151</ele>
        <time>2020-02-07T13:28:31Z</time>
      </trkpt>
      <trkpt lat="43.55667" lon="3.8197">
        <ele>39.087613395539</ele>
        <time>2020-02-07T13:28:36Z</time>
      </trkpt>
      <trkpt lat="43.55676" lon="3.81996">
        <ele>38.909435399634</ele>
        <time>2020-02-07T13:28:41Z</time>
      </trkpt>
      <trkpt lat="43.55684" lon="3.82013">
        <ele>38.870984671565</ele>
        <time>2020-02-07T13:28:45Z</time>
      </trkpt>
      <trkpt lat="43.55692" lon="3.82032">
        <ele>38.808871411114</ele>
        <time>2020-02-07T13:28:49Z</time>
      </trkpt>
      <trkpt lat="43.55699" lon="3.82057">
        <ele>38.685762519684</ele>
        <time>2020-02-07T13:28:54Z</time>
      </trkpt>
      <trkpt lat="43.55707" lon="3.82072">
        <ele>38.577394597516</ele>
        <time>2020-02-07T13:28:58Z</time>
      </trkpt>
      <trkpt lat="43.55716" lon="3.82087">
        <ele>38.451784892248</ele>
        <time>2020-02-07T13:29:03Z</time>
      </trkpt>
      <trkpt lat="43.55724" lon="3.82098">
        <ele>38.370313266617</ele>
        <time>2020-02-07T13:29:07Z</time>
      </trkpt>
      <trkpt lat="43.55733" lon="3.82106">
        <ele>38.297637909183</ele>
        <time>2020-02-07T13:29:11Z</time>
      </trkpt>
      <trkpt lat="43.55743" lon="3.82117">
        <ele>38.203525938697</ele>
        <time>2020-02-07T13:29:16Z</time>
      </trkpt>
      <trkpt lat="43.55752" lon="3.82127">
        <ele>38.129268701576</ele>
        <time>2020-02-07T13:29:20Z</time>
      </trkpt>
      <trkpt lat="43.55762" lon="3.82139">
        <ele>38.058443081657</ele>
        <time>2020-02-07T13:29:24Z</time>
      </trkpt>
      <trkpt lat="43.55777" lon="3.82161">
        <ele>37.978899640326</ele>
        <time>2020-02-07T13:29:29Z</time>
      </trkpt>
      <trkpt lat="43.55785" lon="3.82178">
        <ele>37.808152806548</ele>
        <time>2020-02-07T13:29:33Z</time>
      </trkpt>
      <trkpt lat="43.55799" lon="3.82201">
        <ele>37.636208206953</ele>
        <time>2020-02-07T13:29:38Z</time>
      </trkpt>
      <trkpt lat="43.55814" lon="3.82213">
        <ele>37.640945104101</ele>
        <time>2020-02-07T13:29:42Z</time>
      </trkpt>
      <trkpt lat="43.55827" lon="3.82223">
        <ele>37.640393892178</ele>
        <time>2020-02-07T13:29:46Z</time>
      </trkpt>
      <trkpt lat="43.55836" lon="3.82232">
        <ele>37.626172157552</ele>
        <time>2020-02-07T13:29:51Z</time>
      </trkpt>
      <trkpt lat="43.55849" lon="3.82235">
        <ele>37.608642554652</ele>
        <time>2020-02-07T13:29:55Z</time>
      </trkpt>
      <trkpt lat="43.55859" lon="3.82239">
        <ele>37.580850508615</ele>
        <time>2020-02-07T13:29:59Z</time>
      </trkpt>
      <trkpt lat="43.55867" lon="3.82246">
        <ele>37.535875689617</ele>
        <time>2020-02-07T13:30:04Z</time>
      </trkpt>
      <trkpt lat="43.55873" lon="3.82249">
        <ele>37.503255292284</ele>
        <time>2020-02-07T13:30:08Z</time>
      </trkpt>
      <trkpt lat="43.55892" lon="3.82247">
        <ele>37.466644798615</ele>
        <time>2020-02-07T13:30:13Z</time>
      </trkpt>
      <trkpt lat="43.55904" lon="3.82242">
        <ele>37.427590277317</ele>
        <time>2020-02-07T13:30:17Z</time>
      </trkpt>
      <trkpt lat="43.55922" lon="3.82231">
        <ele>37.384314264947</ele>
        <time>2020-02-07T13:30:22Z</time>
      </trkpt>
      <trkpt lat="43.55944" lon="3.8223">
        <ele>37.41186205748</ele>
        <time>2020-02-07T13:30:26Z</time>
      </trkpt>
      <trkpt lat="43.55965" lon="3.82239">
        <ele>37.480157602471</ele>
        <time>2020-02-07T13:30:30Z</time>
      </trkpt>
      <trkpt lat="43.55979" lon="3.82254">
        <ele>37.5862814554</ele>
        <time>2020-02-07T13:30:35Z</time>
      </trkpt>
      <trkpt lat="43.55987" lon="3.82263">
        <ele>37.672513946415</ele>
        <time>2020-02-07T13:30:39Z</time>
      </trkpt>
      <trkpt lat="43.5601" lon="3.82271">
        <ele>37.953459554471</ele>
        <time>2020-02-07T13:30:44Z</time>
      </trkpt>
      <trkpt lat="43.56047" lon="3.82283">
        <ele>38.629915118781</ele>
        <time>2020-02-07T13:30:49Z</time>
      </trkpt>
      <trkpt lat="43.56074" lon="3.82284">
        <ele>38.790255425386</ele>
        <time>2020-02-07T13:30:53Z</time>
      </trkpt>
      <trkpt lat="43.56094" lon="3.82273">
        <ele>38.835108555457</ele>
        <time>2020-02-07T13:30:57Z</time>
      </trkpt>
      <trkpt lat="43.56106" lon="3.82253">
        <ele>38.942994391758</ele>
        <time>2020-02-07T13:31:02Z</time>
      </trkpt>
      <trkpt lat="43.56116" lon="3.82237">
        <ele>38.944405950131</ele>
        <time>2020-02-07T13:31:06Z</time>
      </trkpt>
      <trkpt lat="43.5613" lon="3.8222">
        <ele>38.93274254656</ele>
        <time>2020-02-07T13:31:10Z</time>
      </trkpt>
      <trkpt lat="43.56141" lon="3.82203">
        <ele>38.908680368996</ele>
        <time>2020-02-07T13:31:14Z</time>
      </trkpt>
      <trkpt lat="43.56153" lon="3.82181">
        <ele>38.87620985834</ele>
        <time>2020-02-07T13:31:19Z</time>
      </trkpt>
      <trkpt lat="43.5616" lon="3.82164">
        <ele>38.842575395256</ele>
        <time>2020-02-07T13:31:23Z</time>
      </trkpt>
      <trkpt lat="43.56168" lon="3.82145">
        <ele>38.81094349223</ele>
        <time>2020-02-07T13:31:27Z</time>
      </trkpt>
      <trkpt lat="43.56176" lon="3.82125">
        <ele>38.761979151237</ele>
        <time>2020-02-07T13:31:32Z</time>
      </trkpt>
      <trkpt lat="43.56176" lon="3.82107">
        <ele>38.717247821566</ele>
        <time>2020-02-07T13:31:36Z</time>
      </trkpt>
      <trkpt lat="43.5619" lon="3.82084">
        <ele>38.571800254509</ele>
        <time>2020-02-07T13:31:40Z</time>
      </trkpt>
      <trkpt lat="43.562" lon="3.82056">
        <ele>38.549358179338</ele>
        <time>2020-02-07T13:31:45Z</time>
      </trkpt>
      <trkpt lat="43.56207" lon="3.82035">
        <ele>38.533419554981</ele>
        <time>2020-02-07T13:31:49Z</time>
      </trkpt>
      <trkpt lat="43.56211" lon="3.82016">
        <ele>38.525981734386</ele>
        <time>2020-02-07T13:31:53Z</time>
      </trkpt>
      <trkpt lat="43.56217" lon="3.81995">
        <ele>38.513887565309</ele>
        <time>2020-02-07T13:31:58Z</time>
      </trkpt>
      <trkpt lat="43.56223" lon="3.81978">
        <ele>38.496222552806</ele>
        <time>2020-02-07T13:32:02Z</time>
      </trkpt>
      <trkpt lat="43.56227" lon="3.81965">
        <ele>38.473901999601</ele>
        <time>2020-02-07T13:32:06Z</time>
      </trkpt>
      <trkpt lat="43.56234" lon="3.81949">
        <ele>38.44624941619</ele>
        <time>2020-02-07T13:32:10Z</time>
      </trkpt>
      <trkpt lat="43.56242" lon="3.81921">
        <ele>38.415324349394</ele>
        <time>2020-02-07T13:32:15Z</time>
      </trkpt>
      <trkpt lat="43.56248" lon="3.81904">
        <ele>38.386399004188</ele>
        <time>2020-02-07T13:32:19Z</time>
      </trkpt>
      <trkpt lat="43.5626" lon="3.8188">
        <ele>38.346450031476</ele>
        <time>2020-02-07T13:32:24Z</time>
      </trkpt>
      <trkpt lat="43.56269" lon="3.81854">
        <ele>38.322646303026</ele>
        <time>2020-02-07T13:32:29Z</time>
      </trkpt>
      <trkpt lat="43.56275" lon="3.81831">
        <ele>38.341644420068</ele>
        <time>2020-02-07T13:32:33Z</time>
      </trkpt>
      <trkpt lat="43.56281" lon="3.81801">
        <ele>38.385209224301</ele>
        <time>2020-02-07T13:32:38Z</time>
      </trkpt>
      <trkpt lat="43.56286" lon="3.81782">
        <ele>38.428628408418</ele>
        <time>2020-02-07T13:32:42Z</time>
      </trkpt>
      <trkpt lat="43.56294" lon="3.81758">
        <ele>38.495030870456</ele>
        <time>2020-02-07T13:32:47Z</time>
      </trkpt>
      <trkpt lat="43.56302" lon="3.81746">
        <ele>38.561413774268</ele>
        <time>2020-02-07T13:32:51Z</time>
      </trkpt>
      <trkpt lat="43.56298" lon="3.81738">
        <ele>38.722470995454</ele>
        <time>2020-02-07T13:32:59Z</time>
      </trkpt>
      <trkpt lat="43.5628" lon="3.81741">
        <ele>38.969030114721</ele>
        <time>2020-02-07T13:33:04Z</time>
      </trkpt>
      <trkpt lat="43.5627" lon="3.81739">
        <ele>39.031956300695</ele>
        <time>2020-02-07T13:33:08Z</time>
      </trkpt>
      <trkpt lat="43.56273" lon="3.81729">
        <ele>39.123721190016</ele>
        <time>2020-02-07T13:33:14Z</time>
      </trkpt>
      <trkpt lat="43.56277" lon="3.81709">
        <ele>39.208139674915</ele>
        <time>2020-02-07T13:33:19Z</time>
      </trkpt>
      <trkpt lat="43.56278" lon="3.81697">
        <ele>39.299116242509</ele>
        <time>2020-02-07T13:33:24Z</time>
      </trkpt>
      <trkpt lat="43.56269" lon="3.8169">
        <ele>39.365933622094</ele>
        <time>2020-02-07T13:33:28Z</time>
      </trkpt>
      <trkpt lat="43.56257" lon="3.81677">
        <ele>39.436591687173</ele>
        <time>2020-02-07T13:33:33Z</time>
      </trkpt>
      <trkpt lat="43.56244" lon="3.81667">
        <ele>39.493964464659</ele>
        <time>2020-02-07T13:33:37Z</time>
      </trkpt>
      <trkpt lat="43.5623" lon="3.81651">
        <ele>39.5671137959</ele>
        <time>2020-02-07T13:33:42Z</time>
      </trkpt>
      <trkpt lat="43.56223" lon="3.81631">
        <ele>39.645312749412</ele>
        <time>2020-02-07T13:33:47Z</time>
      </trkpt>
      <trkpt lat="43.56213" lon="3.81611">
        <ele>39.854252862402</ele>
        <time>2020-02-07T13:33:51Z</time>
      </trkpt>
      <trkpt lat="43.56201" lon="3.81594">
        <ele>39.942979455282</ele>
        <time>2020-02-07T13:33:56Z</time>
      </trkpt>
      <trkpt lat="43.562" lon="3.81579">
        <ele>40.034783214046</ele>
        <time>2020-02-07T13:34:00Z</time>
      </trkpt>
      <trkpt lat="43.56202" lon="3.81565">
        <ele>40.143569077787</ele>
        <time>2020-02-07T13:34:04Z</time>
      </trkpt>
      <trkpt lat="43.56206" lon="3.81547">
        <ele>40.288134081722</ele>
        <time>2020-02-07T13:34:09Z</time>
      </trkpt>
      <trkpt lat="43.56212" lon="3.81535">
        <ele>40.408093564125</ele>
        <time>2020-02-07T13:34:13Z</time>
      </trkpt>
      <trkpt lat="43.56217" lon="3.8152">
        <ele>40.533700806131</ele>
        <time>2020-02-07T13:34:17Z</time>
      </trkpt>
      <trkpt lat="43.56226" lon="3.815">
        <ele>40.708620720187</ele>
        <time>2020-02-07T13:34:22Z</time>
      </trkpt>
      <trkpt lat="43.5623" lon="3.81485">
        <ele>40.845483271981</ele>
        <time>2020-02-07T13:34:26Z</time>
      </trkpt>
      <trkpt lat="43.56235" lon="3.8147">
        <ele>41.006200947175</ele>
        <time>2020-02-07T13:34:30Z</time>
      </trkpt>
      <trkpt lat="43.56241" lon="3.81456">
        <ele>41.199307729082</ele>
        <time>2020-02-07T13:34:34Z</time>
      </trkpt>
      <trkpt lat="43.56248" lon="3.81446">
        <ele>41.448701049119</ele>
        <time>2020-02-07T13:34:39Z</time>
      </trkpt>
      <trkpt lat="43.56255" lon="3.8144">
        <ele>41.638210197755</ele>
        <time>2020-02-07T13:34:43Z</time>
      </trkpt>
      <trkpt lat="43.56265" lon="3.81433">
        <ele>41.822107024325</ele>
        <time>2020-02-07T13:34:47Z</time>
      </trkpt>
      <trkpt lat="43.56273" lon="3.81416">
        <ele>42.049598426367</ele>
        <time>2020-02-07T13:34:52Z</time>
      </trkpt>
      <trkpt lat="43.56281" lon="3.81409">
        <ele>42.233614220365</ele>
        <time>2020-02-07T13:34:56Z</time>
      </trkpt>
      <trkpt lat="43.56292" lon="3.81405">
        <ele>42.41987583465</ele>
        <time>2020-02-07T13:35:00Z</time>
      </trkpt>
      <trkpt lat="43.56303" lon="3.81402">
        <ele>42.593538824985</ele>
        <time>2020-02-07T13:35:04Z</time>
      </trkpt>
      <trkpt lat="43.56318" lon="3.81399">
        <ele>42.777092153493</ele>
        <time>2020-02-07T13:35:09Z</time>
      </trkpt>
      <trkpt lat="43.56332" lon="3.81395">
        <ele>42.904492716097</ele>
        <time>2020-02-07T13:35:13Z</time>
      </trkpt>
      <trkpt lat="43.56351" lon="3.81387">
        <ele>43.902069882529</ele>
        <time>2020-02-07T13:35:18Z</time>
      </trkpt>
      <trkpt lat="43.56364" lon="3.81377">
        <ele>44.45072354495</ele>
        <time>2020-02-07T13:35:22Z</time>
      </trkpt>
      <trkpt lat="43.56376" lon="3.81365">
        <ele>44.689197350833</ele>
        <time>2020-02-07T13:35:26Z</time>
      </trkpt>
      <trkpt lat="43.56389" lon="3.81352">
        <ele>45.039539726728</ele>
        <time>2020-02-07T13:35:30Z</time>
      </trkpt>
      <trkpt lat="43.56399" lon="3.81338">
        <ele>45.088718288847</ele>
        <time>2020-02-07T13:35:34Z</time>
      </trkpt>
      <trkpt lat="43.56402" lon="3.81316">
        <ele>45.162724148868</ele>
        <time>2020-02-07T13:35:39Z</time>
      </trkpt>
      <trkpt lat="43.56406" lon="3.81299">
        <ele>45.222842908811</ele>
        <time>2020-02-07T13:35:43Z</time>
      </trkpt>
      <trkpt lat="43.56407" lon="3.81284">
        <ele>45.298688566631</ele>
        <time>2020-02-07T13:35:47Z</time>
      </trkpt>
      <trkpt lat="43.56399" lon="3.81274">
        <ele>45.419954092148</ele>
        <time>2020-02-07T13:35:52Z</time>
      </trkpt>
      <trkpt lat="43.56391" lon="3.8127">
        <ele>45.529559062134</ele>
        <time>2020-02-07T13:35:56Z</time>
      </trkpt>
      <trkpt lat="43.56383" lon="3.81264">
        <ele>45.644905528566</ele>
        <time>2020-02-07T13:36:00Z</time>
      </trkpt>
      <trkpt lat="43.56371" lon="3.81262">
        <ele>45.768086548377</ele>
        <time>2020-02-07T13:36:04Z</time>
      </trkpt>
      <trkpt lat="43.56369" lon="3.8125">
        <ele>45.93414582348</ele>
        <time>2020-02-07T13:36:09Z</time>
      </trkpt>
      <trkpt lat="43.56371" lon="3.81238">
        <ele>46.069838666211</ele>
        <time>2020-02-07T13:36:13Z</time>
      </trkpt>
      <trkpt lat="43.56363" lon="3.81222">
        <ele>46.231607474718</ele>
        <time>2020-02-07T13:36:18Z</time>
      </trkpt>
      <trkpt lat="43.56348" lon="3.8121">
        <ele>46.383935089187</ele>
        <time>2020-02-07T13:36:23Z</time>
      </trkpt>
      <trkpt lat="43.56331" lon="3.81199">
        <ele>46.801557494863</ele>
        <time>2020-02-07T13:36:28Z</time>
      </trkpt>
      <trkpt lat="43.56318" lon="3.81185">
        <ele>46.904384783064</ele>
        <time>2020-02-07T13:36:32Z</time>
      </trkpt>
      <trkpt lat="43.56301" lon="3.81173">
        <ele>47.037257516546</ele>
        <time>2020-02-07T13:36:37Z</time>
      </trkpt>
      <trkpt lat="43.56287" lon="3.81167">
        <ele>47.151726860425</ele>
        <time>2020-02-07T13:36:41Z</time>
      </trkpt>
      <trkpt lat="43.5628" lon="3.81165">
        <ele>47.26412984754</ele>
        <time>2020-02-07T13:36:45Z</time>
      </trkpt>
      <trkpt lat="43.56268" lon="3.8116">
        <ele>47.40149572079</ele>
        <time>2020-02-07T13:36:50Z</time>
      </trkpt>
      <trkpt lat="43.56259" lon="3.81152">
        <ele>47.504994858352</ele>
        <time>2020-02-07T13:36:54Z</time>
      </trkpt>
      <trkpt lat="43.56244" lon="3.81142">
        <ele>47.962434718956</ele>
        <time>2020-02-07T13:36:58Z</time>
      </trkpt>
      <trkpt lat="43.5623" lon="3.81127">
        <ele>48.400081189275</ele>
        <time>2020-02-07T13:37:02Z</time>
      </trkpt>
      <trkpt lat="43.5621" lon="3.81108">
        <ele>48.618918843342</ele>
        <time>2020-02-07T13:37:07Z</time>
      </trkpt>
      <trkpt lat="43.56192" lon="3.81096">
        <ele>48.673887265686</ele>
        <time>2020-02-07T13:37:11Z</time>
      </trkpt>
      <trkpt lat="43.56178" lon="3.81092">
        <ele>48.683937091144</ele>
        <time>2020-02-07T13:37:15Z</time>
      </trkpt>
      <trkpt lat="43.56173" lon="3.81085">
        <ele>48.642060767173</ele>
        <time>2020-02-07T13:38:03Z</time>
      </trkpt>
      <trkpt lat="43.56164" lon="3.81078">
        <ele>48.627261994058</ele>
        <time>2020-02-07T13:38:08Z</time>
      </trkpt>
      <trkpt lat="43.56153" lon="3.81076">
        <ele>48.615575311476</ele>
        <time>2020-02-07T13:38:12Z</time>
      </trkpt>
      <trkpt lat="43.5614" lon="3.81074">
        <ele>48.599820546629</ele>
        <time>2020-02-07T13:38:17Z</time>
      </trkpt>
      <trkpt lat="43.56129" lon="3.81068">
        <ele>48.581588092382</ele>
        <time>2020-02-07T13:38:22Z</time>
      </trkpt>
      <trkpt lat="43.56121" lon="3.81064">
        <ele>48.567373879293</ele>
        <time>2020-02-07T13:38:26Z</time>
      </trkpt>
      <trkpt lat="43.56107" lon="3.81058">
        <ele>48.54012136715</ele>
        <time>2020-02-07T13:38:31Z</time>
      </trkpt>
      <trkpt lat="43.56095" lon="3.81056">
        <ele>48.50463638473</ele>
        <time>2020-02-07T13:38:35Z</time>
      </trkpt>
      <trkpt lat="43.56087" lon="3.81059">
        <ele>48.463481679435</ele>
        <time>2020-02-07T13:38:39Z</time>
      </trkpt>
      <trkpt lat="43.56078" lon="3.8106">
        <ele>48.412539505159</ele>
        <time>2020-02-07T13:38:43Z</time>
      </trkpt>
      <trkpt lat="43.56067" lon="3.81069">
        <ele>48.337162131286</ele>
        <time>2020-02-07T13:38:48Z</time>
      </trkpt>
      <trkpt lat="43.56055" lon="3.81074">
        <ele>48.274329037132</ele>
        <time>2020-02-07T13:38:52Z</time>
      </trkpt>
      <trkpt lat="43.56046" lon="3.81073">
        <ele>48.189156352992</ele>
        <time>2020-02-07T13:38:57Z</time>
      </trkpt>
      <trkpt lat="43.56034" lon="3.81075">
        <ele>48.117479382697</ele>
        <time>2020-02-07T13:39:01Z</time>
      </trkpt>
      <trkpt lat="43.56018" lon="3.81082">
        <ele>48.027224962559</ele>
        <time>2020-02-07T13:39:05Z</time>
      </trkpt>
      <trkpt lat="43.55999" lon="3.81087">
        <ele>47.393987253115</ele>
        <time>2020-02-07T13:39:10Z</time>
      </trkpt>
      <trkpt lat="43.55991" lon="3.81084">
        <ele>47.301255965084</ele>
        <time>2020-02-07T13:39:14Z</time>
      </trkpt>
      <trkpt lat="43.55982" lon="3.81087">
        <ele>47.140419274683</ele>
        <time>2020-02-07T13:39:21Z</time>
      </trkpt>
      <trkpt lat="43.55974" lon="3.81097">
        <ele>46.983386053265</ele>
        <time>2020-02-07T13:39:26Z</time>
      </trkpt>
      <trkpt lat="43.55967" lon="3.81102">
        <ele>46.815442561431</ele>
        <time>2020-02-07T13:39:31Z</time>
      </trkpt>
      <trkpt lat="43.55959" lon="3.81101">
        <ele>46.678183601273</ele>
        <time>2020-02-07T13:39:35Z</time>
      </trkpt>
      <trkpt lat="43.5595" lon="3.81096">
        <ele>46.537580088205</ele>
        <time>2020-02-07T13:39:39Z</time>
      </trkpt>
      <trkpt lat="43.55942" lon="3.81098">
        <ele>46.130759495544</ele>
        <time>2020-02-07T13:40:01Z</time>
      </trkpt>
      <trkpt lat="43.55933" lon="3.811">
        <ele>45.661703398472</ele>
        <time>2020-02-07T13:40:17Z</time>
      </trkpt>
      <trkpt lat="43.55926" lon="3.81091">
        <ele>45.35955278476</ele>
        <time>2020-02-07T13:40:22Z</time>
      </trkpt>
      <trkpt lat="43.55919" lon="3.81086">
        <ele>45.122974390493</ele>
        <time>2020-02-07T13:40:26Z</time>
      </trkpt>
      <trkpt lat="43.55914" lon="3.81074">
        <ele>44.895164690427</ele>
        <time>2020-02-07T13:40:30Z</time>
      </trkpt>
      <trkpt lat="43.55904" lon="3.81059">
        <ele>44.675659192103</ele>
        <time>2020-02-07T13:40:34Z</time>
      </trkpt>
      <trkpt lat="43.55892" lon="3.81042">
        <ele>44.415093554531</ele>
        <time>2020-02-07T13:40:39Z</time>
      </trkpt>
      <trkpt lat="43.55885" lon="3.81026">
        <ele>44.211550494219</ele>
        <time>2020-02-07T13:40:43Z</time>
      </trkpt>
      <trkpt lat="43.5588" lon="3.81016">
        <ele>44.016866581314</ele>
        <time>2020-02-07T13:40:47Z</time>
      </trkpt>
      <trkpt lat="43.55876" lon="3.81009">
        <ele>43.830730504169</ele>
        <time>2020-02-07T13:40:51Z</time>
      </trkpt>
      <trkpt lat="43.5587" lon="3.80992">
        <ele>43.612657746348</ele>
        <time>2020-02-07T13:40:56Z</time>
      </trkpt>
      <trkpt lat="43.55856" lon="3.80978">
        <ele>43.400927584487</ele>
        <time>2020-02-07T13:41:01Z</time>
      </trkpt>
      <trkpt lat="43.55853" lon="3.80967">
        <ele>43.234436987436</ele>
        <time>2020-02-07T13:41:05Z</time>
      </trkpt>
      <trkpt lat="43.55854" lon="3.80943">
        <ele>43.038295152299</ele>
        <time>2020-02-07T13:41:10Z</time>
      </trkpt>
      <trkpt lat="43.55849" lon="3.8093">
        <ele>42.893246988042</ele>
        <time>2020-02-07T13:41:14Z</time>
      </trkpt>
      <trkpt lat="43.55833" lon="3.80917">
        <ele>42.736764433585</ele>
        <time>2020-02-07T13:41:18Z</time>
      </trkpt>
      <trkpt lat="43.55829" lon="3.80893">
        <ele>42.537160067012</ele>
        <time>2020-02-07T13:41:23Z</time>
      </trkpt>
      <trkpt lat="43.55837" lon="3.80873">
        <ele>42.381935381624</ele>
        <time>2020-02-07T13:41:27Z</time>
      </trkpt>
      <trkpt lat="43.55844" lon="3.80865">
        <ele>42.265134175569</ele>
        <time>2020-02-07T13:41:31Z</time>
      </trkpt>
      <trkpt lat="43.55838" lon="3.80872">
        <ele>42.043954789882</ele>
        <time>2020-02-07T13:41:37Z</time>
      </trkpt>
      <trkpt lat="43.55829" lon="3.80879">
        <ele>41.871075568564</ele>
        <time>2020-02-07T13:41:42Z</time>
      </trkpt>
      <trkpt lat="43.55829" lon="3.80871">
        <ele>41.705346419467</ele>
        <time>2020-02-07T13:41:47Z</time>
      </trkpt>
      <trkpt lat="43.55828" lon="3.80857">
        <ele>41.544624857892</ele>
        <time>2020-02-07T13:41:52Z</time>
      </trkpt>
      <trkpt lat="43.5583" lon="3.80842">
        <ele>41.388609575007</ele>
        <time>2020-02-07T13:41:57Z</time>
      </trkpt>
      <trkpt lat="43.55832" lon="3.8083">
        <ele>41.265115632433</ele>
        <time>2020-02-07T13:42:01Z</time>
      </trkpt>
      <trkpt lat="43.55835" lon="3.80816">
        <ele>41.141927811054</ele>
        <time>2020-02-07T13:42:05Z</time>
      </trkpt>
      <trkpt lat="43.5584" lon="3.80805">
        <ele>40.991430093143</ele>
        <time>2020-02-07T13:42:10Z</time>
      </trkpt>
      <trkpt lat="43.55849" lon="3.80801">
        <ele>40.879174756417</ele>
        <time>2020-02-07T13:42:14Z</time>
      </trkpt>
      <trkpt lat="43.55864" lon="3.80799">
        <ele>40.749381772589</ele>
        <time>2020-02-07T13:42:19Z</time>
      </trkpt>
      <trkpt lat="43.55871" lon="3.80804">
        <ele>40.632600054332</ele>
        <time>2020-02-07T13:42:24Z</time>
      </trkpt>
      <trkpt lat="43.55879" lon="3.808">
        <ele>40.205884362564</ele>
        <time>2020-02-07T13:43:03Z</time>
      </trkpt>
      <trkpt lat="43.55882" lon="3.80796">
        <ele>39.868566229808</ele>
        <time>2020-02-07T13:43:33Z</time>
      </trkpt>
      <trkpt lat="43.55877" lon="3.80782">
        <ele>39.830725962681</ele>
        <time>2020-02-07T13:43:37Z</time>
      </trkpt>
      <trkpt lat="43.55871" lon="3.80774">
        <ele>39.648746859228</ele>
        <time>2020-02-07T13:43:51Z</time>
      </trkpt>
      <trkpt lat="43.5586" lon="3.80771">
        <ele>39.509220177221</ele>
        <time>2020-02-07T13:43:56Z</time>
      </trkpt>
      <trkpt lat="43.55852" lon="3.80766">
        <ele>39.06057049054</ele>
        <time>2020-02-07T13:44:25Z</time>
      </trkpt>
      <trkpt lat="43.55844" lon="3.80765">
        <ele>38.319713526469</ele>
        <time>2020-02-07T13:44:55Z</time>
      </trkpt>
      <trkpt lat="43.55852" lon="3.8077">
        <ele>36.20686950987</ele>
        <time>2020-02-07T13:46:01Z</time>
      </trkpt>
      <trkpt lat="43.5586" lon="3.80771">
        <ele>35.837385124277</ele>
        <time>2020-02-07T13:46:06Z</time>
      </trkpt>
      <trkpt lat="43.55868" lon="3.80768">
        <ele>35.400469110045</ele>
        <time>2020-02-07T13:46:12Z</time>
      </trkpt>
      <trkpt lat="43.55876" lon="3.80764">
        <ele>34.982650063903</ele>
        <time>2020-02-07T13:46:18Z</time>
      </trkpt>
      <trkpt lat="43.55884" lon="3.80762">
        <ele>34.643592905975</ele>
        <time>2020-02-07T13:46:23Z</time>
      </trkpt>
      <trkpt lat="43.55894" lon="3.80759">
        <ele>34.307622240759</ele>
        <time>2020-02-07T13:46:28Z</time>
      </trkpt>
      <trkpt lat="43.55903" lon="3.80756">
        <ele>34.04890915347</ele>
        <time>2020-02-07T13:46:32Z</time>
      </trkpt>
      <trkpt lat="43.5591" lon="3.80754">
        <ele>33.80598617856</ele>
        <time>2020-02-07T13:46:36Z</time>
      </trkpt>
      <trkpt lat="43.55918" lon="3.80755">
        <ele>33.519001025769</ele>
        <time>2020-02-07T13:46:41Z</time>
      </trkpt>
      <trkpt lat="43.55927" lon="3.80757">
        <ele>33.245078285304</ele>
        <time>2020-02-07T13:46:46Z</time>
      </trkpt>
      <trkpt lat="43.55934" lon="3.80764">
        <ele>32.945793853032</ele>
        <time>2020-02-07T13:46:52Z</time>
      </trkpt>
      <trkpt lat="43.55941" lon="3.80769">
        <ele>32.657948890747</ele>
        <time>2020-02-07T13:46:58Z</time>
      </trkpt>
      <trkpt lat="43.55948" lon="3.80768">
        <ele>32.472712144662</ele>
        <time>2020-02-07T13:47:02Z</time>
      </trkpt>
      <trkpt lat="43.55958" lon="3.80767">
        <ele>32.257365852583</ele>
        <time>2020-02-07T13:47:07Z</time>
      </trkpt>
      <trkpt lat="43.55966" lon="3.80769">
        <ele>32.033637373415</ele>
        <time>2020-02-07T13:47:13Z</time>
      </trkpt>
      <trkpt lat="43.55973" lon="3.80772">
        <ele>31.848803741265</ele>
        <time>2020-02-07T13:47:19Z</time>
      </trkpt>
      <trkpt lat="43.55982" lon="3.80777">
        <ele>31.694897207967</ele>
        <time>2020-02-07T13:47:25Z</time>
      </trkpt>
      <trkpt lat="43.55988" lon="3.80782">
        <ele>31.581110897968</ele>
        <time>2020-02-07T13:47:30Z</time>
      </trkpt>
      <trkpt lat="43.55995" lon="3.80788">
        <ele>31.502945892721</ele>
        <time>2020-02-07T13:47:34Z</time>
      </trkpt>
      <trkpt lat="43.56002" lon="3.80794">
        <ele>31.419085922219</ele>
        <time>2020-02-07T13:47:39Z</time>
      </trkpt>
      <trkpt lat="43.56011" lon="3.80795">
        <ele>31.311601754456</ele>
        <time>2020-02-07T13:47:45Z</time>
      </trkpt>
      <trkpt lat="43.56023" lon="3.80797">
        <ele>31.228837999889</ele>
        <time>2020-02-07T13:47:49Z</time>
      </trkpt>
      <trkpt lat="43.56038" lon="3.80796">
        <ele>31.129020934492</ele>
        <time>2020-02-07T13:47:54Z</time>
      </trkpt>
      <trkpt lat="43.56048" lon="3.80796">
        <ele>31.052752347617</ele>
        <time>2020-02-07T13:47:58Z</time>
      </trkpt>
      <trkpt lat="43.56056" lon="3.80798">
        <ele>30.988016624555</ele>
        <time>2020-02-07T13:48:02Z</time>
      </trkpt>
      <trkpt lat="43.56066" lon="3.80803">
        <ele>30.924988287976</ele>
        <time>2020-02-07T13:48:07Z</time>
      </trkpt>
      <trkpt lat="43.56072" lon="3.80809">
        <ele>30.890517814884</ele>
        <time>2020-02-07T13:48:11Z</time>
      </trkpt>
      <trkpt lat="43.56079" lon="3.80815">
        <ele>30.867608854662</ele>
        <time>2020-02-07T13:48:15Z</time>
      </trkpt>
      <trkpt lat="43.56091" lon="3.80822">
        <ele>30.841342422507</ele>
        <time>2020-02-07T13:48:20Z</time>
      </trkpt>
      <trkpt lat="43.56098" lon="3.80827">
        <ele>30.827338949481</ele>
        <time>2020-02-07T13:48:24Z</time>
      </trkpt>
      <trkpt lat="43.56104" lon="3.80834">
        <ele>30.815008910781</ele>
        <time>2020-02-07T13:48:28Z</time>
      </trkpt>
      <trkpt lat="43.56111" lon="3.80842">
        <ele>30.802273855463</ele>
        <time>2020-02-07T13:48:32Z</time>
      </trkpt>
      <trkpt lat="43.56122" lon="3.80854">
        <ele>30.777478521433</ele>
        <time>2020-02-07T13:48:37Z</time>
      </trkpt>
      <trkpt lat="43.56128" lon="3.8087">
        <ele>30.745127198824</ele>
        <time>2020-02-07T13:48:42Z</time>
      </trkpt>
      <trkpt lat="43.56135" lon="3.8088">
        <ele>30.701117148295</ele>
        <time>2020-02-07T13:48:47Z</time>
      </trkpt>
      <trkpt lat="43.56141" lon="3.80887">
        <ele>30.665511129627</ele>
        <time>2020-02-07T13:48:51Z</time>
      </trkpt>
      <trkpt lat="43.56145" lon="3.80894">
        <ele>30.633319870209</ele>
        <time>2020-02-07T13:48:55Z</time>
      </trkpt>
      <trkpt lat="43.56148" lon="3.80908">
        <ele>30.599577911851</ele>
        <time>2020-02-07T13:48:59Z</time>
      </trkpt>
      <trkpt lat="43.5615" lon="3.8092">
        <ele>30.562175883269</ele>
        <time>2020-02-07T13:49:03Z</time>
      </trkpt>
      <trkpt lat="43.56152" lon="3.80931">
        <ele>30.522274904824</ele>
        <time>2020-02-07T13:49:07Z</time>
      </trkpt>
      <trkpt lat="43.56159" lon="3.80941">
        <ele>30.47753351548</ele>
        <time>2020-02-07T13:49:12Z</time>
      </trkpt>
      <trkpt lat="43.56164" lon="3.8095">
        <ele>30.443202367513</ele>
        <time>2020-02-07T13:49:16Z</time>
      </trkpt>
      <trkpt lat="43.56168" lon="3.80961">
        <ele>30.397065895724</ele>
        <time>2020-02-07T13:49:21Z</time>
      </trkpt>
      <trkpt lat="43.56171" lon="3.80971">
        <ele>30.35502838502</ele>
        <time>2020-02-07T13:49:25Z</time>
      </trkpt>
      <trkpt lat="43.56173" lon="3.80983">
        <ele>30.297367156398</ele>
        <time>2020-02-07T13:49:30Z</time>
      </trkpt>
      <trkpt lat="43.56176" lon="3.80992">
        <ele>30.252216105826</ele>
        <time>2020-02-07T13:49:34Z</time>
      </trkpt>
      <trkpt lat="43.56176" lon="3.81002">
        <ele>30.190534670948</ele>
        <time>2020-02-07T13:49:39Z</time>
      </trkpt>
      <trkpt lat="43.56179" lon="3.81013">
        <ele>30.112597606176</ele>
        <time>2020-02-07T13:49:45Z</time>
      </trkpt>
      <trkpt lat="43.56193" lon="3.81014">
        <ele>30.070855890482</ele>
        <time>2020-02-07T13:49:49Z</time>
      </trkpt>
      <trkpt lat="43.56202" lon="3.81014">
        <ele>30.050334631463</ele>
        <time>2020-02-07T13:49:55Z</time>
      </trkpt>
      <trkpt lat="43.56211" lon="3.8101">
        <ele>30.125049710316</ele>
        <time>2020-02-07T13:50:38Z</time>
      </trkpt>
      <trkpt lat="43.56218" lon="3.8101">
        <ele>30.266464886054</ele>
        <time>2020-02-07T13:50:47Z</time>
      </trkpt>
      <trkpt lat="43.56231" lon="3.8101">
        <ele>30.380027867768</ele>
        <time>2020-02-07T13:50:52Z</time>
      </trkpt>
      <trkpt lat="43.5624" lon="3.81009">
        <ele>30.469715957791</ele>
        <time>2020-02-07T13:50:56Z</time>
      </trkpt>
      <trkpt lat="43.5625" lon="3.81009">
        <ele>30.555674434086</ele>
        <time>2020-02-07T13:51:00Z</time>
      </trkpt>
      <trkpt lat="43.56262" lon="3.81009">
        <ele>30.639477292728</ele>
        <time>2020-02-07T13:51:04Z</time>
      </trkpt>
      <trkpt lat="43.56276" lon="3.81009">
        <ele>30.745034485415</ele>
        <time>2020-02-07T13:51:09Z</time>
      </trkpt>
      <trkpt lat="43.56289" lon="3.81009">
        <ele>30.829190406532</ele>
        <time>2020-02-07T13:51:13Z</time>
      </trkpt>
      <trkpt lat="43.56304" lon="3.8101">
        <ele>30.935773676793</ele>
        <time>2020-02-07T13:51:18Z</time>
      </trkpt>
      <trkpt lat="43.56317" lon="3.81011">
        <ele>31.020803123978</ele>
        <time>2020-02-07T13:51:22Z</time>
      </trkpt>
      <trkpt lat="43.56328" lon="3.81016">
        <ele>31.103668484323</ele>
        <time>2020-02-07T13:51:26Z</time>
      </trkpt>
      <trkpt lat="43.56342" lon="3.81021">
        <ele>31.20349834111</ele>
        <time>2020-02-07T13:51:31Z</time>
      </trkpt>
      <trkpt lat="43.56353" lon="3.81029">
        <ele>31.282626672717</ele>
        <time>2020-02-07T13:51:35Z</time>
      </trkpt>
      <trkpt lat="43.56364" lon="3.81038">
        <ele>31.376519938918</ele>
        <time>2020-02-07T13:51:40Z</time>
      </trkpt>
      <trkpt lat="43.56371" lon="3.81051">
        <ele>31.445676018434</ele>
        <time>2020-02-07T13:51:44Z</time>
      </trkpt>
      <trkpt lat="43.56375" lon="3.81061">
        <ele>31.5096728895</ele>
        <time>2020-02-07T13:51:48Z</time>
      </trkpt>
      <trkpt lat="43.56381" lon="3.81079">
        <ele>31.582375823297</ele>
        <time>2020-02-07T13:51:53Z</time>
      </trkpt>
      <trkpt lat="43.56384" lon="3.81096">
        <ele>31.633905717936</ele>
        <time>2020-02-07T13:51:57Z</time>
      </trkpt>
      <trkpt lat="43.56389" lon="3.81114">
        <ele>31.680764777544</ele>
        <time>2020-02-07T13:52:01Z</time>
      </trkpt>
      <trkpt lat="43.56395" lon="3.81131">
        <ele>31.724087364714</ele>
        <time>2020-02-07T13:52:05Z</time>
      </trkpt>
      <trkpt lat="43.56402" lon="3.81157">
        <ele>31.774232073857</ele>
        <time>2020-02-07T13:52:10Z</time>
      </trkpt>
      <trkpt lat="43.56408" lon="3.81176">
        <ele>31.813765575981</ele>
        <time>2020-02-07T13:52:14Z</time>
      </trkpt>
      <trkpt lat="43.56417" lon="3.81183">
        <ele>31.854800964194</ele>
        <time>2020-02-07T13:52:18Z</time>
      </trkpt>
      <trkpt lat="43.56435" lon="3.81198">
        <ele>32.124112997972</ele>
        <time>2020-02-07T13:52:22Z</time>
      </trkpt>
      <trkpt lat="43.56447" lon="3.81216">
        <ele>32.299293228005</ele>
        <time>2020-02-07T13:52:26Z</time>
      </trkpt>
      <trkpt lat="43.56465" lon="3.81237">
        <ele>32.395182947724</ele>
        <time>2020-02-07T13:52:31Z</time>
      </trkpt>
      <trkpt lat="43.5648" lon="3.81253">
        <ele>32.442241806893</ele>
        <time>2020-02-07T13:52:35Z</time>
      </trkpt>
      <trkpt lat="43.56488" lon="3.81253">
        <ele>32.45039585999</ele>
        <time>2020-02-07T13:52:39Z</time>
      </trkpt>
      <trkpt lat="43.56509" lon="3.81233">
        <ele>32.541040022924</ele>
        <time>2020-02-07T13:52:44Z</time>
      </trkpt>
      <trkpt lat="43.56538" lon="3.81225">
        <ele>32.596534360666</ele>
        <time>2020-02-07T13:52:49Z</time>
      </trkpt>
      <trkpt lat="43.56557" lon="3.81225">
        <ele>32.624442942967</ele>
        <time>2020-02-07T13:52:53Z</time>
      </trkpt>
      <trkpt lat="43.5657" lon="3.81226">
        <ele>32.628585041594</ele>
        <time>2020-02-07T13:52:57Z</time>
      </trkpt>
      <trkpt lat="43.5658" lon="3.81223">
        <ele>32.636743105513</ele>
        <time>2020-02-07T13:53:02Z</time>
      </trkpt>
      <trkpt lat="43.56586" lon="3.81211">
        <ele>32.645837472176</ele>
        <time>2020-02-07T13:53:06Z</time>
      </trkpt>
      <trkpt lat="43.56594" lon="3.81195">
        <ele>32.673029126493</ele>
        <time>2020-02-07T13:53:11Z</time>
      </trkpt>
      <trkpt lat="43.56601" lon="3.81184">
        <ele>32.701550727239</ele>
        <time>2020-02-07T13:53:15Z</time>
      </trkpt>
      <trkpt lat="43.56615" lon="3.81167">
        <ele>32.743975412621</ele>
        <time>2020-02-07T13:53:20Z</time>
      </trkpt>
      <trkpt lat="43.56625" lon="3.81151">
        <ele>32.780310441145</ele>
        <time>2020-02-07T13:53:24Z</time>
      </trkpt>
      <trkpt lat="43.56637" lon="3.8113">
        <ele>33.092418356633</ele>
        <time>2020-02-07T13:53:28Z</time>
      </trkpt>
      <trkpt lat="43.56655" lon="3.81108">
        <ele>33.309649523496</ele>
        <time>2020-02-07T13:53:33Z</time>
      </trkpt>
      <trkpt lat="43.56666" lon="3.81102">
        <ele>33.322927459383</ele>
        <time>2020-02-07T13:53:37Z</time>
      </trkpt>
      <trkpt lat="43.56682" lon="3.81113">
        <ele>33.471031189676</ele>
        <time>2020-02-07T13:53:41Z</time>
      </trkpt>
      <trkpt lat="43.56701" lon="3.81125">
        <ele>33.545641722392</ele>
        <time>2020-02-07T13:53:46Z</time>
      </trkpt>
      <trkpt lat="43.56716" lon="3.81133">
        <ele>33.554682706959</ele>
        <time>2020-02-07T13:53:50Z</time>
      </trkpt>
      <trkpt lat="43.56725" lon="3.81142">
        <ele>33.57221052379</ele>
        <time>2020-02-07T13:53:55Z</time>
      </trkpt>
      <trkpt lat="43.56736" lon="3.81152">
        <ele>33.589360913279</ele>
        <time>2020-02-07T13:53:59Z</time>
      </trkpt>
      <trkpt lat="43.56753" lon="3.81172">
        <ele>33.747536609625</ele>
        <time>2020-02-07T13:54:04Z</time>
      </trkpt>
      <trkpt lat="43.56772" lon="3.81188">
        <ele>33.76943794164</ele>
        <time>2020-02-07T13:54:08Z</time>
      </trkpt>
      <trkpt lat="43.56797" lon="3.81209">
        <ele>33.721719600172</ele>
        <time>2020-02-07T13:54:12Z</time>
      </trkpt>
      <trkpt lat="43.56826" lon="3.81235">
        <ele>33.253649466044</ele>
        <time>2020-02-07T13:54:17Z</time>
      </trkpt>
      <trkpt lat="43.56854" lon="3.81238">
        <ele>32.714868401301</ele>
        <time>2020-02-07T13:54:22Z</time>
      </trkpt>
      <trkpt lat="43.56859" lon="3.81237">
        <ele>32.623440853615</ele>
        <time>2020-02-07T13:54:29Z</time>
      </trkpt>
      <trkpt lat="43.56866" lon="3.81247">
        <ele>32.508959287096</ele>
        <time>2020-02-07T13:54:33Z</time>
      </trkpt>
      <trkpt lat="43.56873" lon="3.81254">
        <ele>32.226375413996</ele>
        <time>2020-02-07T13:54:40Z</time>
      </trkpt>
      <trkpt lat="43.56889" lon="3.81249">
        <ele>31.971043461564</ele>
        <time>2020-02-07T13:54:45Z</time>
      </trkpt>
      <trkpt lat="43.56897" lon="3.81244">
        <ele>31.771655615704</ele>
        <time>2020-02-07T13:54:49Z</time>
      </trkpt>
      <trkpt lat="43.56905" lon="3.81243">
        <ele>31.532064534299</ele>
        <time>2020-02-07T13:54:54Z</time>
      </trkpt>
      <trkpt lat="43.56916" lon="3.81239">
        <ele>31.314267155709</ele>
        <time>2020-02-07T13:54:59Z</time>
      </trkpt>
      <trkpt lat="43.56933" lon="3.81242">
        <ele>30.774065067603</ele>
        <time>2020-02-07T13:55:04Z</time>
      </trkpt>
      <trkpt lat="43.56951" lon="3.81256">
        <ele>29.893936251359</ele>
        <time>2020-02-07T13:55:08Z</time>
      </trkpt>
      <trkpt lat="43.56963" lon="3.8127">
        <ele>29.480101975106</ele>
        <time>2020-02-07T13:55:12Z</time>
      </trkpt>
      <trkpt lat="43.56984" lon="3.81286">
        <ele>29.180959652694</ele>
        <time>2020-02-07T13:55:17Z</time>
      </trkpt>
      <trkpt lat="43.57003" lon="3.81302">
        <ele>28.898762585153</ele>
        <time>2020-02-07T13:55:21Z</time>
      </trkpt>
      <trkpt lat="43.57024" lon="3.81309">
        <ele>28.66466026776</ele>
        <time>2020-02-07T13:55:25Z</time>
      </trkpt>
      <trkpt lat="43.57037" lon="3.81334">
        <ele>28.561953197324</ele>
        <time>2020-02-07T13:55:29Z</time>
      </trkpt>
      <trkpt lat="43.57043" lon="3.81351">
        <ele>28.536230911389</ele>
        <time>2020-02-07T13:55:34Z</time>
      </trkpt>
      <trkpt lat="43.57049" lon="3.81349">
        <ele>28.520796059086</ele>
        <time>2020-02-07T13:55:39Z</time>
      </trkpt>
      <trkpt lat="43.57072" lon="3.81341">
        <ele>28.500191878867</ele>
        <time>2020-02-07T13:55:44Z</time>
      </trkpt>
      <trkpt lat="43.57078" lon="3.8132">
        <ele>28.477217965284</ele>
        <time>2020-02-07T13:55:48Z</time>
      </trkpt>
      <trkpt lat="43.57088" lon="3.81301">
        <ele>28.433223037751</ele>
        <time>2020-02-07T13:55:53Z</time>
      </trkpt>
      <trkpt lat="43.57089" lon="3.81293">
        <ele>28.317226545364</ele>
        <time>2020-02-07T13:55:56Z</time>
      </trkpt>
      <trkpt lat="43.5709" lon="3.81281">
        <ele>28.122654926434</ele>
        <time>2020-02-07T13:56:00Z</time>
      </trkpt>
      <trkpt lat="43.57099" lon="3.81271">
        <ele>28.1074706615</ele>
        <time>2020-02-07T13:56:04Z</time>
      </trkpt>
      <trkpt lat="43.57113" lon="3.8126">
        <ele>28.082780039285</ele>
        <time>2020-02-07T13:56:09Z</time>
      </trkpt>
      <trkpt lat="43.57123" lon="3.81241">
        <ele>28.054464380268</ele>
        <time>2020-02-07T13:56:13Z</time>
      </trkpt>
      <trkpt lat="43.57132" lon="3.81233">
        <ele>28.014017828177</ele>
        <time>2020-02-07T13:56:17Z</time>
      </trkpt>
      <trkpt lat="43.57145" lon="3.8122">
        <ele>27.956051853504</ele>
        <time>2020-02-07T13:56:22Z</time>
      </trkpt>
      <trkpt lat="43.57159" lon="3.81211">
        <ele>27.906133152108</ele>
        <time>2020-02-07T13:56:26Z</time>
      </trkpt>
      <trkpt lat="43.57176" lon="3.81197">
        <ele>27.841974415349</ele>
        <time>2020-02-07T13:56:31Z</time>
      </trkpt>
      <trkpt lat="43.5719" lon="3.81186">
        <ele>27.79140475915</ele>
        <time>2020-02-07T13:56:35Z</time>
      </trkpt>
      <trkpt lat="43.57204" lon="3.81176">
        <ele>27.744571346193</ele>
        <time>2020-02-07T13:56:39Z</time>
      </trkpt>
      <trkpt lat="43.57237" lon="3.81164">
        <ele>27.435073998887</ele>
        <time>2020-02-07T13:56:44Z</time>
      </trkpt>
      <trkpt lat="43.57255" lon="3.81158">
        <ele>27.185429796009</ele>
        <time>2020-02-07T13:56:48Z</time>
      </trkpt>
      <trkpt lat="43.5727" lon="3.81153">
        <ele>27.164801903239</ele>
        <time>2020-02-07T13:56:52Z</time>
      </trkpt>
      <trkpt lat="43.57288" lon="3.81141">
        <ele>27.140139298675</ele>
        <time>2020-02-07T13:56:56Z</time>
      </trkpt>
      <trkpt lat="43.57301" lon="3.81121">
        <ele>27.103847665152</ele>
        <time>2020-02-07T13:57:01Z</time>
      </trkpt>
      <trkpt lat="43.57309" lon="3.81121">
        <ele>26.990154535531</ele>
        <time>2020-02-07T13:57:15Z</time>
      </trkpt>
      <trkpt lat="43.57315" lon="3.81127">
        <ele>26.811911836359</ele>
        <time>2020-02-07T13:57:30Z</time>
      </trkpt>
      <trkpt lat="43.57322" lon="3.81137">
        <ele>26.740506104245</ele>
        <time>2020-02-07T13:57:34Z</time>
      </trkpt>
      <trkpt lat="43.57326" lon="3.81146">
        <ele>26.663732675535</ele>
        <time>2020-02-07T13:57:38Z</time>
      </trkpt>
      <trkpt lat="43.5733" lon="3.81158">
        <ele>26.588049930582</ele>
        <time>2020-02-07T13:57:42Z</time>
      </trkpt>
      <trkpt lat="43.57338" lon="3.81168">
        <ele>26.495411986656</ele>
        <time>2020-02-07T13:57:47Z</time>
      </trkpt>
      <trkpt lat="43.5735" lon="3.81172">
        <ele>26.416343347239</ele>
        <time>2020-02-07T13:57:51Z</time>
      </trkpt>
      <trkpt lat="43.57368" lon="3.81179">
        <ele>26.312875234353</ele>
        <time>2020-02-07T13:57:56Z</time>
      </trkpt>
      <trkpt lat="43.57379" lon="3.81189">
        <ele>26.227418064179</ele>
        <time>2020-02-07T13:58:00Z</time>
      </trkpt>
      <trkpt lat="43.57381" lon="3.81202">
        <ele>26.144799486714</ele>
        <time>2020-02-07T13:58:04Z</time>
      </trkpt>
      <trkpt lat="43.574" lon="3.81221">
        <ele>26.050067315016</ele>
        <time>2020-02-07T13:58:09Z</time>
      </trkpt>
      <trkpt lat="43.57411" lon="3.81229">
        <ele>25.979163484191</ele>
        <time>2020-02-07T13:58:13Z</time>
      </trkpt>
      <trkpt lat="43.57423" lon="3.81239">
        <ele>25.906614213022</ele>
        <time>2020-02-07T13:58:17Z</time>
      </trkpt>
      <trkpt lat="43.57449" lon="3.81256">
        <ele>25.442076672998</ele>
        <time>2020-02-07T13:58:22Z</time>
      </trkpt>
      <trkpt lat="43.57463" lon="3.81264">
        <ele>25.400020474713</ele>
        <time>2020-02-07T13:58:27Z</time>
      </trkpt>
      <trkpt lat="43.57477" lon="3.81265">
        <ele>25.371296485612</ele>
        <time>2020-02-07T13:58:31Z</time>
      </trkpt>
      <trkpt lat="43.57499" lon="3.81274">
        <ele>25.228839790755</ele>
        <time>2020-02-07T13:58:36Z</time>
      </trkpt>
      <trkpt lat="43.57523" lon="3.8129">
        <ele>25.062612071738</ele>
        <time>2020-02-07T13:58:41Z</time>
      </trkpt>
      <trkpt lat="43.57541" lon="3.81302">
        <ele>24.979391058632</ele>
        <time>2020-02-07T13:58:45Z</time>
      </trkpt>
      <trkpt lat="43.57561" lon="3.8132">
        <ele>24.919023911591</ele>
        <time>2020-02-07T13:58:49Z</time>
      </trkpt>
      <trkpt lat="43.57581" lon="3.81333">
        <ele>24.870708228605</ele>
        <time>2020-02-07T13:58:53Z</time>
      </trkpt>
      <trkpt lat="43.576" lon="3.81345">
        <ele>24.843786551835</ele>
        <time>2020-02-07T13:58:57Z</time>
      </trkpt>
      <trkpt lat="43.57624" lon="3.81357">
        <ele>24.839777892489</ele>
        <time>2020-02-07T13:59:02Z</time>
      </trkpt>
      <trkpt lat="43.57648" lon="3.81371">
        <ele>24.805971976866</ele>
        <time>2020-02-07T13:59:07Z</time>
      </trkpt>
      <trkpt lat="43.57667" lon="3.81378">
        <ele>24.774468468596</ele>
        <time>2020-02-07T13:59:11Z</time>
      </trkpt>
      <trkpt lat="43.57688" lon="3.81379">
        <ele>24.694817173641</ele>
        <time>2020-02-07T13:59:15Z</time>
      </trkpt>
      <trkpt lat="43.57715" lon="3.81377">
        <ele>24.533796870511</ele>
        <time>2020-02-07T13:59:20Z</time>
      </trkpt>
      <trkpt lat="43.57737" lon="3.81378">
        <ele>24.456204866526</ele>
        <time>2020-02-07T13:59:24Z</time>
      </trkpt>
      <trkpt lat="43.57759" lon="3.81375">
        <ele>24.43468629002</ele>
        <time>2020-02-07T13:59:28Z</time>
      </trkpt>
      <trkpt lat="43.57785" lon="3.81375">
        <ele>24.396936202436</ele>
        <time>2020-02-07T13:59:33Z</time>
      </trkpt>
      <trkpt lat="43.57804" lon="3.81381">
        <ele>24.358488397507</ele>
        <time>2020-02-07T13:59:37Z</time>
      </trkpt>
      <trkpt lat="43.57823" lon="3.81396">
        <ele>24.288753492949</ele>
        <time>2020-02-07T13:59:41Z</time>
      </trkpt>
      <trkpt lat="43.57839" lon="3.81418">
        <ele>24.19217265457</ele>
        <time>2020-02-07T13:59:45Z</time>
      </trkpt>
      <trkpt lat="43.57857" lon="3.81442">
        <ele>24.079326140921</ele>
        <time>2020-02-07T13:59:50Z</time>
      </trkpt>
      <trkpt lat="43.57876" lon="3.81448">
        <ele>23.96705456463</ele>
        <time>2020-02-07T13:59:54Z</time>
      </trkpt>
      <trkpt lat="43.57903" lon="3.81449">
        <ele>23.81162510111</ele>
        <time>2020-02-07T13:59:59Z</time>
      </trkpt>
      <trkpt lat="43.57927" lon="3.81451">
        <ele>23.712278964967</ele>
        <time>2020-02-07T14:00:03Z</time>
      </trkpt>
      <trkpt lat="43.57952" lon="3.81453">
        <ele>23.615436989182</ele>
        <time>2020-02-07T14:00:08Z</time>
      </trkpt>
      <trkpt lat="43.57976" lon="3.81459">
        <ele>23.514067670381</ele>
        <time>2020-02-07T14:00:13Z</time>
      </trkpt>
      <trkpt lat="43.57997" lon="3.81466">
        <ele>23.472795676124</ele>
        <time>2020-02-07T14:00:17Z</time>
      </trkpt>
      <trkpt lat="43.58012" lon="3.81479">
        <ele>23.424673279926</ele>
        <time>2020-02-07T14:00:21Z</time>
      </trkpt>
      <trkpt lat="43.58025" lon="3.81489">
        <ele>23.390182862836</ele>
        <time>2020-02-07T14:00:25Z</time>
      </trkpt>
      <trkpt lat="43.58047" lon="3.81495">
        <ele>23.303874290401</ele>
        <time>2020-02-07T14:00:30Z</time>
      </trkpt>
      <trkpt lat="43.58063" lon="3.81496">
        <ele>23.210077681515</ele>
        <time>2020-02-07T14:00:34Z</time>
      </trkpt>
      <trkpt lat="43.58078" lon="3.81496">
        <ele>23.176579773329</ele>
        <time>2020-02-07T14:00:39Z</time>
      </trkpt>
      <trkpt lat="43.58086" lon="3.81501">
        <ele>23.122668945193</ele>
        <time>2020-02-07T14:00:44Z</time>
      </trkpt>
      <trkpt lat="43.58097" lon="3.81502">
        <ele>23.067627250795</ele>
        <time>2020-02-07T14:00:48Z</time>
      </trkpt>
      <trkpt lat="43.58106" lon="3.81516">
        <ele>22.997967430831</ele>
        <time>2020-02-07T14:00:52Z</time>
      </trkpt>
      <trkpt lat="43.58116" lon="3.81522">
        <ele>22.914367658979</ele>
        <time>2020-02-07T14:00:56Z</time>
      </trkpt>
      <trkpt lat="43.58129" lon="3.81531">
        <ele>22.824196886098</ele>
        <time>2020-02-07T14:01:01Z</time>
      </trkpt>
      <trkpt lat="43.58142" lon="3.81546">
        <ele>22.736523198017</ele>
        <time>2020-02-07T14:01:06Z</time>
      </trkpt>
      <trkpt lat="43.58151" lon="3.81548">
        <ele>22.66624628114</ele>
        <time>2020-02-07T14:01:10Z</time>
      </trkpt>
      <trkpt lat="43.58165" lon="3.81554">
        <ele>22.579558875711</ele>
        <time>2020-02-07T14:01:15Z</time>
      </trkpt>
      <trkpt lat="43.5818" lon="3.81559">
        <ele>22.512955596181</ele>
        <time>2020-02-07T14:01:19Z</time>
      </trkpt>
      <trkpt lat="43.58202" lon="3.81569">
        <ele>22.438129134013</ele>
        <time>2020-02-07T14:01:24Z</time>
      </trkpt>
      <trkpt lat="43.58217" lon="3.81571">
        <ele>22.387038840293</ele>
        <time>2020-02-07T14:01:28Z</time>
      </trkpt>
      <trkpt lat="43.58239" lon="3.81575">
        <ele>22.152975909932</ele>
        <time>2020-02-07T14:01:33Z</time>
      </trkpt>
      <trkpt lat="43.58251" lon="3.81581">
        <ele>22.12774175502</ele>
        <time>2020-02-07T14:01:37Z</time>
      </trkpt>
      <trkpt lat="43.58262" lon="3.81594">
        <ele>22.104173837556</ele>
        <time>2020-02-07T14:01:41Z</time>
      </trkpt>
      <trkpt lat="43.5828" lon="3.81609">
        <ele>22.076474108351</ele>
        <time>2020-02-07T14:01:46Z</time>
      </trkpt>
      <trkpt lat="43.58294" lon="3.81614">
        <ele>22.057385437546</ele>
        <time>2020-02-07T14:01:50Z</time>
      </trkpt>
      <trkpt lat="43.58303" lon="3.81618">
        <ele>22.041595890141</ele>
        <time>2020-02-07T14:01:54Z</time>
      </trkpt>
      <trkpt lat="43.58319" lon="3.8162">
        <ele>21.95086747874</ele>
        <time>2020-02-07T14:01:59Z</time>
      </trkpt>
      <trkpt lat="43.58333" lon="3.81611">
        <ele>21.933263073715</ele>
        <time>2020-02-07T14:02:03Z</time>
      </trkpt>
      <trkpt lat="43.58347" lon="3.81605">
        <ele>21.913853945426</ele>
        <time>2020-02-07T14:02:07Z</time>
      </trkpt>
      <trkpt lat="43.58357" lon="3.81586">
        <ele>21.88873699033</ele>
        <time>2020-02-07T14:02:12Z</time>
      </trkpt>
      <trkpt lat="43.58369" lon="3.8159">
        <ele>21.870555142475</ele>
        <time>2020-02-07T14:02:16Z</time>
      </trkpt>
      <trkpt lat="43.58378" lon="3.81575">
        <ele>21.853132362714</ele>
        <time>2020-02-07T14:02:20Z</time>
      </trkpt>
      <trkpt lat="43.58383" lon="3.81564">
        <ele>21.830479285432</ele>
        <time>2020-02-07T14:02:24Z</time>
      </trkpt>
      <trkpt lat="43.58389" lon="3.81543">
        <ele>21.803496168092</ele>
        <time>2020-02-07T14:02:28Z</time>
      </trkpt>
      <trkpt lat="43.58398" lon="3.81523">
        <ele>21.76675047829</ele>
        <time>2020-02-07T14:02:33Z</time>
      </trkpt>
      <trkpt lat="43.58402" lon="3.81511">
        <ele>21.738250963835</ele>
        <time>2020-02-07T14:02:37Z</time>
      </trkpt>
      <trkpt lat="43.58411" lon="3.81491">
        <ele>21.70980765138</ele>
        <time>2020-02-07T14:02:41Z</time>
      </trkpt>
      <trkpt lat="43.58416" lon="3.81483">
        <ele>21.671425429771</ele>
        <time>2020-02-07T14:03:02Z</time>
      </trkpt>
      <trkpt lat="43.58424" lon="3.81479">
        <ele>21.649815937936</ele>
        <time>2020-02-07T14:03:08Z</time>
      </trkpt>
      <trkpt lat="43.58433" lon="3.81481">
        <ele>21.655628685351</ele>
        <time>2020-02-07T14:05:00Z</time>
      </trkpt>
      <trkpt lat="43.58439" lon="3.81488">
        <ele>22.460592035966</ele>
        <time>2020-02-07T14:07:01Z</time>
      </trkpt>
      <trkpt lat="43.58447" lon="3.81494">
        <ele>22.642471015439</ele>
        <time>2020-02-07T14:07:06Z</time>
      </trkpt>
      <trkpt lat="43.58458" lon="3.81497">
        <ele>22.808746566384</ele>
        <time>2020-02-07T14:07:11Z</time>
      </trkpt>
      <trkpt lat="43.58468" lon="3.81497">
        <ele>22.92576599403</ele>
        <time>2020-02-07T14:07:15Z</time>
      </trkpt>
      <trkpt lat="43.58481" lon="3.81498">
        <ele>23.027735874709</ele>
        <time>2020-02-07T14:07:19Z</time>
      </trkpt>
      <trkpt lat="43.58496" lon="3.81492">
        <ele>23.144011930847</ele>
        <time>2020-02-07T14:07:24Z</time>
      </trkpt>
      <trkpt lat="43.58503" lon="3.81496">
        <ele>23.261607400272</ele>
        <time>2020-02-07T14:07:30Z</time>
      </trkpt>
      <trkpt lat="43.58514" lon="3.81487">
        <ele>23.321230989234</ele>
        <time>2020-02-07T14:07:34Z</time>
      </trkpt>
      <trkpt lat="43.58536" lon="3.81469">
        <ele>23.365563469423</ele>
        <time>2020-02-07T14:07:38Z</time>
      </trkpt>
      <trkpt lat="43.5855" lon="3.81451">
        <ele>23.415633807854</ele>
        <time>2020-02-07T14:07:43Z</time>
      </trkpt>
      <trkpt lat="43.58557" lon="3.8143">
        <ele>23.448549833425</ele>
        <time>2020-02-07T14:07:47Z</time>
      </trkpt>
      <trkpt lat="43.58569" lon="3.81404">
        <ele>23.476188132216</ele>
        <time>2020-02-07T14:07:51Z</time>
      </trkpt>
      <trkpt lat="43.5858" lon="3.81389">
        <ele>23.502610793979</ele>
        <time>2020-02-07T14:07:55Z</time>
      </trkpt>
      <trkpt lat="43.58586" lon="3.81366">
        <ele>23.528211241981</ele>
        <time>2020-02-07T14:07:59Z</time>
      </trkpt>
      <trkpt lat="43.58594" lon="3.81337">
        <ele>23.613814872692</ele>
        <time>2020-02-07T14:08:04Z</time>
      </trkpt>
      <trkpt lat="43.58602" lon="3.81314">
        <ele>23.632331078193</ele>
        <time>2020-02-07T14:08:08Z</time>
      </trkpt>
      <trkpt lat="43.58606" lon="3.81288">
        <ele>23.648976545569</ele>
        <time>2020-02-07T14:08:13Z</time>
      </trkpt>
      <trkpt lat="43.58611" lon="3.81284">
        <ele>23.659960398893</ele>
        <time>2020-02-07T14:08:19Z</time>
      </trkpt>
      <trkpt lat="43.58623" lon="3.81295">
        <ele>23.659493559822</ele>
        <time>2020-02-07T14:08:23Z</time>
      </trkpt>
      <trkpt lat="43.5864" lon="3.81307">
        <ele>23.643254104243</ele>
        <time>2020-02-07T14:08:28Z</time>
      </trkpt>
      <trkpt lat="43.58656" lon="3.81305">
        <ele>23.620357986863</ele>
        <time>2020-02-07T14:08:33Z</time>
      </trkpt>
      <trkpt lat="43.58664" lon="3.81286">
        <ele>23.495862270267</ele>
        <time>2020-02-07T14:08:37Z</time>
      </trkpt>
      <trkpt lat="43.58674" lon="3.81263">
        <ele>23.335221997064</ele>
        <time>2020-02-07T14:08:41Z</time>
      </trkpt>
      <trkpt lat="43.58684" lon="3.81237">
        <ele>23.223386200244</ele>
        <time>2020-02-07T14:08:46Z</time>
      </trkpt>
      <trkpt lat="43.58693" lon="3.81216">
        <ele>23.177869690958</ele>
        <time>2020-02-07T14:08:50Z</time>
      </trkpt>
      <trkpt lat="43.58701" lon="3.81194">
        <ele>23.146826602828</ele>
        <time>2020-02-07T14:08:54Z</time>
      </trkpt>
      <trkpt lat="43.58709" lon="3.81172">
        <ele>23.10905942812</ele>
        <time>2020-02-07T14:08:58Z</time>
      </trkpt>
      <trkpt lat="43.58718" lon="3.81151">
        <ele>23.005523213038</ele>
        <time>2020-02-07T14:09:02Z</time>
      </trkpt>
      <trkpt lat="43.58731" lon="3.8113">
        <ele>22.999813967486</ele>
        <time>2020-02-07T14:09:07Z</time>
      </trkpt>
      <trkpt lat="43.58751" lon="3.81128">
        <ele>23.043913429728</ele>
        <time>2020-02-07T14:09:12Z</time>
      </trkpt>
      <trkpt lat="43.58766" lon="3.81135">
        <ele>23.023335523923</ele>
        <time>2020-02-07T14:09:16Z</time>
      </trkpt>
      <trkpt lat="43.58778" lon="3.81148">
        <ele>22.980100468173</ele>
        <time>2020-02-07T14:09:20Z</time>
      </trkpt>
      <trkpt lat="43.58789" lon="3.81167">
        <ele>22.919833721475</ele>
        <time>2020-02-07T14:09:24Z</time>
      </trkpt>
      <trkpt lat="43.58806" lon="3.81192">
        <ele>22.895628258198</ele>
        <time>2020-02-07T14:09:29Z</time>
      </trkpt>
      <trkpt lat="43.58822" lon="3.81216">
        <ele>22.968999530717</ele>
        <time>2020-02-07T14:09:33Z</time>
      </trkpt>
      <trkpt lat="43.58833" lon="3.81235">
        <ele>23.043461151683</ele>
        <time>2020-02-07T14:09:37Z</time>
      </trkpt>
      <trkpt lat="43.58848" lon="3.81255">
        <ele>23.255238848314</ele>
        <time>2020-02-07T14:09:42Z</time>
      </trkpt>
      <trkpt lat="43.58861" lon="3.81272">
        <ele>23.368854285937</ele>
        <time>2020-02-07T14:09:46Z</time>
      </trkpt>
      <trkpt lat="43.58876" lon="3.81291">
        <ele>23.438485764996</ele>
        <time>2020-02-07T14:09:50Z</time>
      </trkpt>
      <trkpt lat="43.58894" lon="3.81314">
        <ele>23.481297970797</ele>
        <time>2020-02-07T14:09:55Z</time>
      </trkpt>
      <trkpt lat="43.5891" lon="3.81336">
        <ele>23.510155149914</ele>
        <time>2020-02-07T14:09:59Z</time>
      </trkpt>
      <trkpt lat="43.58926" lon="3.81361">
        <ele>23.567680608207</ele>
        <time>2020-02-07T14:10:03Z</time>
      </trkpt>
      <trkpt lat="43.58941" lon="3.81382">
        <ele>23.644813494938</ele>
        <time>2020-02-07T14:10:07Z</time>
      </trkpt>
      <trkpt lat="43.58958" lon="3.81406">
        <ele>23.688203862326</ele>
        <time>2020-02-07T14:10:12Z</time>
      </trkpt>
      <trkpt lat="43.58976" lon="3.81425">
        <ele>23.666496011059</ele>
        <time>2020-02-07T14:10:16Z</time>
      </trkpt>
      <trkpt lat="43.58995" lon="3.81457">
        <ele>23.566587141696</ele>
        <time>2020-02-07T14:10:21Z</time>
      </trkpt>
      <trkpt lat="43.59008" lon="3.81477">
        <ele>23.50688245522</ele>
        <time>2020-02-07T14:10:25Z</time>
      </trkpt>
      <trkpt lat="43.59022" lon="3.815">
        <ele>23.473412357871</ele>
        <time>2020-02-07T14:10:30Z</time>
      </trkpt>
      <trkpt lat="43.59037" lon="3.8152">
        <ele>23.47360543085</ele>
        <time>2020-02-07T14:10:34Z</time>
      </trkpt>
      <trkpt lat="43.5905" lon="3.81538">
        <ele>23.471249206881</ele>
        <time>2020-02-07T14:10:38Z</time>
      </trkpt>
      <trkpt lat="43.59065" lon="3.81556">
        <ele>23.435545231414</ele>
        <time>2020-02-07T14:10:42Z</time>
      </trkpt>
      <trkpt lat="43.59083" lon="3.81581">
        <ele>23.363767474329</ele>
        <time>2020-02-07T14:10:47Z</time>
      </trkpt>
      <trkpt lat="43.59097" lon="3.81602">
        <ele>23.321627925366</ele>
        <time>2020-02-07T14:10:51Z</time>
      </trkpt>
      <trkpt lat="43.59116" lon="3.81613">
        <ele>23.318069350033</ele>
        <time>2020-02-07T14:10:56Z</time>
      </trkpt>
      <trkpt lat="43.59137" lon="3.81614">
        <ele>23.290106764437</ele>
        <time>2020-02-07T14:11:00Z</time>
      </trkpt>
      <trkpt lat="43.59165" lon="3.81594">
        <ele>23.257352835587</ele>
        <time>2020-02-07T14:11:05Z</time>
      </trkpt>
      <trkpt lat="43.5918" lon="3.81584">
        <ele>23.250470349082</ele>
        <time>2020-02-07T14:11:09Z</time>
      </trkpt>
      <trkpt lat="43.59177" lon="3.81567">
        <ele>23.241333629425</ele>
        <time>2020-02-07T14:11:13Z</time>
      </trkpt>
      <trkpt lat="43.59173" lon="3.81554">
        <ele>23.211390047296</ele>
        <time>2020-02-07T14:11:17Z</time>
      </trkpt>
      <trkpt lat="43.59166" lon="3.81533">
        <ele>23.161781759803</ele>
        <time>2020-02-07T14:11:22Z</time>
      </trkpt>
      <trkpt lat="43.59161" lon="3.81521">
        <ele>23.147001830813</ele>
        <time>2020-02-07T14:11:27Z</time>
      </trkpt>
      <trkpt lat="43.59158" lon="3.81511">
        <ele>23.428265341511</ele>
        <time>2020-02-07T14:12:26Z</time>
      </trkpt>
      <trkpt lat="43.59149" lon="3.8149">
        <ele>24.596395160362</ele>
        <time>2020-02-07T14:12:31Z</time>
      </trkpt>
      <trkpt lat="43.5914" lon="3.81467">
        <ele>25.458739954884</ele>
        <time>2020-02-07T14:12:35Z</time>
      </trkpt>
      <trkpt lat="43.59133" lon="3.81477">
        <ele>25.533248043267</ele>
        <time>2020-02-07T14:12:40Z</time>
      </trkpt>
      <trkpt lat="43.59137" lon="3.81507">
        <ele>25.817941776791</ele>
        <time>2020-02-07T14:12:45Z</time>
      </trkpt>
      <trkpt lat="43.59142" lon="3.81536">
        <ele>25.774866693886</ele>
        <time>2020-02-07T14:12:50Z</time>
      </trkpt>
      <trkpt lat="43.59147" lon="3.81558">
        <ele>25.695704781466</ele>
        <time>2020-02-07T14:12:54Z</time>
      </trkpt>
      <trkpt lat="43.59152" lon="3.81584">
        <ele>25.665292752808</ele>
        <time>2020-02-07T14:12:58Z</time>
      </trkpt>
      <trkpt lat="43.59155" lon="3.81617">
        <ele>25.723327300205</ele>
        <time>2020-02-07T14:13:03Z</time>
      </trkpt>
      <trkpt lat="43.5916" lon="3.81642">
        <ele>25.702031802164</ele>
        <time>2020-02-07T14:13:07Z</time>
      </trkpt>
      <trkpt lat="43.59169" lon="3.81671">
        <ele>25.611840950383</ele>
        <time>2020-02-07T14:13:12Z</time>
      </trkpt>
      <trkpt lat="43.59179" lon="3.817">
        <ele>25.670328506677</ele>
        <time>2020-02-07T14:13:16Z</time>
      </trkpt>
      <trkpt lat="43.59189" lon="3.81725">
        <ele>25.812526418542</ele>
        <time>2020-02-07T14:13:20Z</time>
      </trkpt>
      <trkpt lat="43.59196" lon="3.81752">
        <ele>25.920050608399</ele>
        <time>2020-02-07T14:13:24Z</time>
      </trkpt>
      <trkpt lat="43.59203" lon="3.81777">
        <ele>25.947205391867</ele>
        <time>2020-02-07T14:13:28Z</time>
      </trkpt>
      <trkpt lat="43.59213" lon="3.81796">
        <ele>25.930824482592</ele>
        <time>2020-02-07T14:13:32Z</time>
      </trkpt>
      <trkpt lat="43.59228" lon="3.81799">
        <ele>25.920018263538</ele>
        <time>2020-02-07T14:13:36Z</time>
      </trkpt>
      <trkpt lat="43.59245" lon="3.81816">
        <ele>25.821833499239</ele>
        <time>2020-02-07T14:13:41Z</time>
      </trkpt>
      <trkpt lat="43.59251" lon="3.8185">
        <ele>25.720878255728</ele>
        <time>2020-02-07T14:13:45Z</time>
      </trkpt>
      <trkpt lat="43.5926" lon="3.81886">
        <ele>25.640270996625</ele>
        <time>2020-02-07T14:13:50Z</time>
      </trkpt>
      <trkpt lat="43.59266" lon="3.81915">
        <ele>25.602748090841</ele>
        <time>2020-02-07T14:13:54Z</time>
      </trkpt>
      <trkpt lat="43.59273" lon="3.81948">
        <ele>25.625155353899</ele>
        <time>2020-02-07T14:13:59Z</time>
      </trkpt>
      <trkpt lat="43.59278" lon="3.81973">
        <ele>25.622484844197</ele>
        <time>2020-02-07T14:14:03Z</time>
      </trkpt>
      <trkpt lat="43.59281" lon="3.81993">
        <ele>25.622798397991</ele>
        <time>2020-02-07T14:14:07Z</time>
      </trkpt>
      <trkpt lat="43.59295" lon="3.82019">
        <ele>25.614506117369</ele>
        <time>2020-02-07T14:14:12Z</time>
      </trkpt>
      <trkpt lat="43.59307" lon="3.82029">
        <ele>25.614023565075</ele>
        <time>2020-02-07T14:14:16Z</time>
      </trkpt>
      <trkpt lat="43.59324" lon="3.82041">
        <ele>25.563219859483</ele>
        <time>2020-02-07T14:14:21Z</time>
      </trkpt>
      <trkpt lat="43.59347" lon="3.82057">
        <ele>25.530338797186</ele>
        <time>2020-02-07T14:14:25Z</time>
      </trkpt>
      <trkpt lat="43.59351" lon="3.82079">
        <ele>25.505723450712</ele>
        <time>2020-02-07T14:14:30Z</time>
      </trkpt>
      <trkpt lat="43.59337" lon="3.82093">
        <ele>25.497717217765</ele>
        <time>2020-02-07T14:14:34Z</time>
      </trkpt>
      <trkpt lat="43.59327" lon="3.82108">
        <ele>25.492526779012</ele>
        <time>2020-02-07T14:14:38Z</time>
      </trkpt>
      <trkpt lat="43.59318" lon="3.82126">
        <ele>25.4911774028</ele>
        <time>2020-02-07T14:14:42Z</time>
      </trkpt>
      <trkpt lat="43.59311" lon="3.82145">
        <ele>25.500098000373</ele>
        <time>2020-02-07T14:14:47Z</time>
      </trkpt>
      <trkpt lat="43.59318" lon="3.82142">
        <ele>25.50054990347</ele>
        <time>2020-02-07T14:14:51Z</time>
      </trkpt>
      <trkpt lat="43.59329" lon="3.8213">
        <ele>25.496446664075</ele>
        <time>2020-02-07T14:14:55Z</time>
      </trkpt>
      <trkpt lat="43.59344" lon="3.82114">
        <ele>25.487846139501</ele>
        <time>2020-02-07T14:15:00Z</time>
      </trkpt>
      <trkpt lat="43.59356" lon="3.82104">
        <ele>25.481446183512</ele>
        <time>2020-02-07T14:15:04Z</time>
      </trkpt>
      <trkpt lat="43.59368" lon="3.82094">
        <ele>25.474636751882</ele>
        <time>2020-02-07T14:15:08Z</time>
      </trkpt>
      <trkpt lat="43.59385" lon="3.82083">
        <ele>25.447023966402</ele>
        <time>2020-02-07T14:15:12Z</time>
      </trkpt>
      <trkpt lat="43.59406" lon="3.82083">
        <ele>25.399409753267</ele>
        <time>2020-02-07T14:15:17Z</time>
      </trkpt>
      <trkpt lat="43.59418" lon="3.82102">
        <ele>25.404518141268</ele>
        <time>2020-02-07T14:15:21Z</time>
      </trkpt>
      <trkpt lat="43.59427" lon="3.82113">
        <ele>25.417607539362</ele>
        <time>2020-02-07T14:15:25Z</time>
      </trkpt>
      <trkpt lat="43.5944" lon="3.82129">
        <ele>25.438842557706</ele>
        <time>2020-02-07T14:15:30Z</time>
      </trkpt>
      <trkpt lat="43.5945" lon="3.82138">
        <ele>25.461226401636</ele>
        <time>2020-02-07T14:15:34Z</time>
      </trkpt>
      <trkpt lat="43.59461" lon="3.82151">
        <ele>25.495135489901</ele>
        <time>2020-02-07T14:15:39Z</time>
      </trkpt>
      <trkpt lat="43.59467" lon="3.82162">
        <ele>25.527236832657</ele>
        <time>2020-02-07T14:15:43Z</time>
      </trkpt>
      <trkpt lat="43.5947" lon="3.82174">
        <ele>25.560298056847</ele>
        <time>2020-02-07T14:15:47Z</time>
      </trkpt>
      <trkpt lat="43.59471" lon="3.82187">
        <ele>25.590273734207</ele>
        <time>2020-02-07T14:15:51Z</time>
      </trkpt>
      <trkpt lat="43.59476" lon="3.82201">
        <ele>25.622952812164</ele>
        <time>2020-02-07T14:15:56Z</time>
      </trkpt>
      <trkpt lat="43.59484" lon="3.82215">
        <ele>25.659133148072</ele>
        <time>2020-02-07T14:16:00Z</time>
      </trkpt>
      <trkpt lat="43.59488" lon="3.82228">
        <ele>25.703617075123</ele>
        <time>2020-02-07T14:16:04Z</time>
      </trkpt>
      <trkpt lat="43.59493" lon="3.82236">
        <ele>25.748780759114</ele>
        <time>2020-02-07T14:16:08Z</time>
      </trkpt>
      <trkpt lat="43.59501" lon="3.8225">
        <ele>25.80999622543</ele>
        <time>2020-02-07T14:16:13Z</time>
      </trkpt>
      <trkpt lat="43.59507" lon="3.82257">
        <ele>25.878602421296</ele>
        <time>2020-02-07T14:16:18Z</time>
      </trkpt>
      <trkpt lat="43.59513" lon="3.82265">
        <ele>25.934710290291</ele>
        <time>2020-02-07T14:16:22Z</time>
      </trkpt>
      <trkpt lat="43.59517" lon="3.82274">
        <ele>25.99214262234</ele>
        <time>2020-02-07T14:16:26Z</time>
      </trkpt>
      <trkpt lat="43.59524" lon="3.82284">
        <ele>26.06810555767</ele>
        <time>2020-02-07T14:16:31Z</time>
      </trkpt>
      <trkpt lat="43.59532" lon="3.82296">
        <ele>26.147823594531</ele>
        <time>2020-02-07T14:16:36Z</time>
      </trkpt>
      <trkpt lat="43.59539" lon="3.82304">
        <ele>26.227232086314</ele>
        <time>2020-02-07T14:16:41Z</time>
      </trkpt>
      <trkpt lat="43.59543" lon="3.8231">
        <ele>26.292583650909</ele>
        <time>2020-02-07T14:16:45Z</time>
      </trkpt>
      <trkpt lat="43.5955" lon="3.82321">
        <ele>26.378703294313</ele>
        <time>2020-02-07T14:16:50Z</time>
      </trkpt>
      <trkpt lat="43.59555" lon="3.82329">
        <ele>26.449168673379</ele>
        <time>2020-02-07T14:16:54Z</time>
      </trkpt>
      <trkpt lat="43.5956" lon="3.82337">
        <ele>26.52014785349</ele>
        <time>2020-02-07T14:16:58Z</time>
      </trkpt>
      <trkpt lat="43.59567" lon="3.82347">
        <ele>26.595702667896</ele>
        <time>2020-02-07T14:17:02Z</time>
      </trkpt>
      <trkpt lat="43.59574" lon="3.82353">
        <ele>26.717414320787</ele>
        <time>2020-02-07T14:17:08Z</time>
      </trkpt>
      <trkpt lat="43.59583" lon="3.82368">
        <ele>26.831911657744</ele>
        <time>2020-02-07T14:17:13Z</time>
      </trkpt>
      <trkpt lat="43.59588" lon="3.82379">
        <ele>26.969805553562</ele>
        <time>2020-02-07T14:17:18Z</time>
      </trkpt>
      <trkpt lat="43.59594" lon="3.82386">
        <ele>27.082891532777</ele>
        <time>2020-02-07T14:17:22Z</time>
      </trkpt>
      <trkpt lat="43.59601" lon="3.82397">
        <ele>27.231473871931</ele>
        <time>2020-02-07T14:17:27Z</time>
      </trkpt>
      <trkpt lat="43.59607" lon="3.82405">
        <ele>27.390496631543</ele>
        <time>2020-02-07T14:17:32Z</time>
      </trkpt>
      <trkpt lat="43.59614" lon="3.82421">
        <ele>27.570313731864</ele>
        <time>2020-02-07T14:17:37Z</time>
      </trkpt>
      <trkpt lat="43.59619" lon="3.8243">
        <ele>27.738045409812</ele>
        <time>2020-02-07T14:17:41Z</time>
      </trkpt>
      <trkpt lat="43.59628" lon="3.82442">
        <ele>27.981881312756</ele>
        <time>2020-02-07T14:17:46Z</time>
      </trkpt>
      <trkpt lat="43.59633" lon="3.82454">
        <ele>28.20511742377</ele>
        <time>2020-02-07T14:17:50Z</time>
      </trkpt>
      <trkpt lat="43.5964" lon="3.8246">
        <ele>28.500941780307</ele>
        <time>2020-02-07T14:17:55Z</time>
      </trkpt>
      <trkpt lat="43.5965" lon="3.82469">
        <ele>28.767833451018</ele>
        <time>2020-02-07T14:17:59Z</time>
      </trkpt>
      <trkpt lat="43.59661" lon="3.82482">
        <ele>29.065522521126</ele>
        <time>2020-02-07T14:18:03Z</time>
      </trkpt>
      <trkpt lat="43.59678" lon="3.82507">
        <ele>31.813565308045</ele>
        <time>2020-02-07T14:18:08Z</time>
      </trkpt>
      <trkpt lat="43.597" lon="3.82538">
        <ele>33.15445794426</ele>
        <time>2020-02-07T14:18:13Z</time>
      </trkpt>
      <trkpt lat="43.59725" lon="3.82567">
        <ele>34.513252153505</ele>
        <time>2020-02-07T14:18:18Z</time>
      </trkpt>
      <trkpt lat="43.59745" lon="3.8259">
        <ele>35.356877995972</ele>
        <time>2020-02-07T14:18:22Z</time>
      </trkpt>
      <trkpt lat="43.59763" lon="3.8261">
        <ele>35.811642000511</ele>
        <time>2020-02-07T14:18:26Z</time>
      </trkpt>
      <trkpt lat="43.59786" lon="3.82639">
        <ele>37.025311815324</ele>
        <time>2020-02-07T14:18:31Z</time>
      </trkpt>
      <trkpt lat="43.59802" lon="3.82663">
        <ele>38.652283236569</ele>
        <time>2020-02-07T14:18:35Z</time>
      </trkpt>
      <trkpt lat="43.59817" lon="3.82686">
        <ele>40.191128234617</ele>
        <time>2020-02-07T14:18:39Z</time>
      </trkpt>
      <trkpt lat="43.59829" lon="3.8271">
        <ele>41.628381333898</ele>
        <time>2020-02-07T14:18:44Z</time>
      </trkpt>
      <trkpt lat="43.59835" lon="3.82729">
        <ele>41.787909013571</ele>
        <time>2020-02-07T14:18:48Z</time>
      </trkpt>
      <trkpt lat="43.59843" lon="3.82746">
        <ele>42.919224978048</ele>
        <time>2020-02-07T14:18:52Z</time>
      </trkpt>
      <trkpt lat="43.59857" lon="3.82761">
        <ele>43.400449208013</ele>
        <time>2020-02-07T14:18:57Z</time>
      </trkpt>
      <trkpt lat="43.5987" lon="3.82771">
        <ele>43.453175478154</ele>
        <time>2020-02-07T14:19:01Z</time>
      </trkpt>
      <trkpt lat="43.59885" lon="3.82785">
        <ele>43.691449762412</ele>
        <time>2020-02-07T14:19:05Z</time>
      </trkpt>
      <trkpt lat="43.59904" lon="3.82802">
        <ele>43.916539219548</ele>
        <time>2020-02-07T14:19:10Z</time>
      </trkpt>
      <trkpt lat="43.59917" lon="3.82816">
        <ele>43.724729759692</ele>
        <time>2020-02-07T14:19:14Z</time>
      </trkpt>
      <trkpt lat="43.59945" lon="3.82835">
        <ele>41.276140329333</ele>
        <time>2020-02-07T14:19:19Z</time>
      </trkpt>
      <trkpt lat="43.59968" lon="3.82851">
        <ele>39.453609625127</ele>
        <time>2020-02-07T14:19:23Z</time>
      </trkpt>
      <trkpt lat="43.59996" lon="3.82871">
        <ele>38.956583502628</ele>
        <time>2020-02-07T14:19:28Z</time>
      </trkpt>
      <trkpt lat="43.60016" lon="3.82888">
        <ele>39.032790595269</ele>
        <time>2020-02-07T14:19:32Z</time>
      </trkpt>
      <trkpt lat="43.60032" lon="3.82904">
        <ele>39.834152457062</ele>
        <time>2020-02-07T14:19:36Z</time>
      </trkpt>
      <trkpt lat="43.6005" lon="3.82919">
        <ele>40.680274900948</ele>
        <time>2020-02-07T14:19:40Z</time>
      </trkpt>
      <trkpt lat="43.6007" lon="3.82945">
        <ele>41.174293475677</ele>
        <time>2020-02-07T14:19:45Z</time>
      </trkpt>
      <trkpt lat="43.60098" lon="3.82981">
        <ele>41.75454320439</ele>
        <time>2020-02-07T14:19:50Z</time>
      </trkpt>
      <trkpt lat="43.60122" lon="3.83009">
        <ele>42.291305932834</ele>
        <time>2020-02-07T14:19:54Z</time>
      </trkpt>
      <trkpt lat="43.60145" lon="3.83035">
        <ele>43.08253302123</ele>
        <time>2020-02-07T14:19:58Z</time>
      </trkpt>
      <trkpt lat="43.60171" lon="3.83068">
        <ele>43.844495986633</ele>
        <time>2020-02-07T14:20:03Z</time>
      </trkpt>
      <trkpt lat="43.60193" lon="3.83102">
        <ele>44.901834760603</ele>
        <time>2020-02-07T14:20:08Z</time>
      </trkpt>
    </trkseg>
  </trk>
</gpx>